Flight Track Log - Related Links

Times and Time Zones

All times are in EDT time to prevent confusion due to time zone crossing. See the CPA879 flight status page for this flight to view local times or setup timezone preferences in your user account.

Time Position Orientation Groundspeed Altitude Reporting Facility
EDT Latitude Longitude Course Direction KTS MPH feet Rate Location/Type
Fri 05:04:51 PM 37.6314 -122.4017 296° West 164 189 30,000  Level Oakland Center
Fri 05:05:53 PM 37.6533 -122.4594 296° West 186 214 2,300 -2,642 Descending Oakland Center
Fri 05:12:07 PM 37.6760 -123.1080 296° West 371 427 10,800 1,232 Climbing FlightAware ADS-B
Fri 05:12:47 PM 37.6810 -123.1820 275° West 371 427 10,800  Level FlightAware ADS-B
Fri 05:13:27 PM 37.6860 -123.2550 275° West 371 427 10,800 3,195 Level FlightAware ADS-B
Fri 05:14:04 PM 37.6964 -123.4092 275° West 420 483 14,900 3,576 Climbing Oakland Center
Fri 05:15:06 PM 37.7089 -123.5622 276° West 432 497 16,700 1,512 Climbing Oakland Center
Fri 05:16:07 PM 37.7286 -123.7178 279° West 442 509 18,000 1,317 Climbing Oakland Center
Fri 05:17:09 PM 37.7514 -123.8736 281° West 447 514 19,400 1,317 Climbing Oakland Center
Fri 05:18:10 PM 37.7733 -124.0344 280° West 460 529 20,700 1,171 Climbing Oakland Center
Fri 05:19:12 PM 37.7961 -124.2000 280° West 476 548 21,800 1,073 Climbing Oakland Center
Fri 05:20:13 PM 37.8192 -124.3697 280° West 487 560 22,900 1,122 Climbing Oakland Center
Fri 05:21:15 PM 37.8406 -124.5414 279° West 495 570 24,100 1,122 Climbing Oakland Center
Fri 05:22:16 PM 37.8631 -124.7150 279° West 499 574 25,200 1,122 Climbing Oakland Center
Fri 05:23:18 PM 37.8903 -124.9261 279° West 504 580 26,400 1,073 Climbing Oakland Center
Fri 05:24:19 PM 37.9119 -125.1044 279° West 512 589 27,400 976 Climbing Oakland Center
Fri 05:25:21 PM 37.9358 -125.2811 280° West 511 588 28,400 780 Climbing Oakland Center
Fri 05:26:22 PM 37.9561 -125.4572 278° West 509 586 29,000 293 Climbing Oakland Center
Fri 05:27:24 PM 37.9775 -125.6331 279° West 507 583 29,000  Level Oakland Center
Fri 05:28:25 PM 37.9986 -125.8078 279° West 505 581 29,000  Level Oakland Center
Fri 05:29:27 PM 38.0189 -125.9839 278° West 504 580 29,000  Level Oakland Center
Fri 05:30:28 PM 38.0392 -126.1575 278° West 502 578 29,000  Level Oakland Center
Fri 05:31:30 PM 38.0603 -126.3489 278° West 503 579 29,000  Level Oakland Center
Fri 05:32:31 PM 38.0806 -126.5244 278° West 503 579 29,000  Level Oakland Center
Fri 05:33:33 PM 38.1014 -126.7011 279° West 506 582 29,000  Level Oakland Center
Fri 05:34:34 PM 38.1206 -126.8769 278° West 505 581 29,000  Level Oakland Center
Fri 05:35:07 PM 38.1333 -127.0000 288° West 500 575 29,000  Level Oakland Oceanic (ODAPS)
Fri 05:35:36 PM 38.1519 -127.0853 288° West 502 578 29,000  Level Oakland Center
Fri 05:37:00 PM 38.2019 -127.3019 286° West  Level FlightAware Approximate
Fri 05:39:00 PM 38.3000 -127.6667 287° West 500 575 29,000  Level Oakland Oceanic (ODAPS)
Fri 05:39:53 PM 38.3000 -127.7000 287° West 502 578 29,000  Level Oakland Oceanic (ODAPS)
Fri 05:44:00 PM 38.4655 -128.3823 288° West  Level FlightAware Approximate
Fri 05:45:00 PM 38.5342 -128.6624 286° West 500 575 29,000  Level FlightAware Transoceanic
Fri 05:46:00 PM 38.5723 -128.8457 287° West 502 578 29,000  Level FlightAware Transoceanic
Fri 05:47:00 PM 38.6103 -129.0101 286° West 502 578 29,000  Level FlightAware Transoceanic
Fri 05:48:00 PM 38.6480 -129.1747 286° West 502 578 29,000  Level FlightAware Transoceanic
Fri 05:49:00 PM 38.6856 -129.3394 286° West 502 578 29,000  Level FlightAware Transoceanic
Fri 05:50:00 PM 38.7229 -129.5043 286° West 502 578 29,000  Level FlightAware Transoceanic
Fri 05:51:00 PM 38.7599 -129.6694 286° West 502 578 29,000  Level FlightAware Transoceanic
Fri 05:52:00 PM 38.7967 -129.8346 286° West 502 578 29,000  Level FlightAware Transoceanic
Fri 05:53:00 PM 38.8333 -130.0000 296° West 502 578 29,000  Level FlightAware Transoceanic
Fri 05:53:03 PM 38.8333 -130.0000 296° West 493 567 29,000  Level Oakland Oceanic (ODAPS)
Fri 05:53:19 PM 38.8500 -130.0333 296° West 493 567 29,000  Level Oakland Oceanic (ODAPS)
Fri 05:54:00 PM 38.8920 -130.1563 296° West 502 578 29,000  Level FlightAware Transoceanic
Fri 05:55:00 PM 38.9504 -130.3128 296° West 502 578 29,000  Level FlightAware Transoceanic
Fri 05:56:00 PM 39.0086 -130.4696 295° West 502 578 29,000  Level FlightAware Transoceanic
Fri 05:57:00 PM 39.0666 -130.6266 295° West 502 578 29,000  Level FlightAware Transoceanic
Fri 05:58:00 PM 39.1244 -130.7839 295° West 502 578 29,000  Level FlightAware Transoceanic
Fri 05:59:00 PM 39.2025 -130.9876 295° West 493 567 29,000  Level FlightAware Transoceanic
Fri 06:00:00 PM 39.2605 -131.1476 295° West 493 567 29,000  Level FlightAware Transoceanic
Fri 06:01:00 PM 39.3182 -131.3078 295° West 493 567 29,000  Level FlightAware Transoceanic
Fri 06:01:06 PM 39.3000 -131.2833 295° West 493 567 29,000  Level Oakland Oceanic (ODAPS)
Fri 06:02:00 PM 39.3758 -131.4683 295° West 493 567 29,000  Level FlightAware Transoceanic
Fri 06:03:00 PM 39.4331 -131.6291 295° West 493 567 29,000  Level FlightAware Transoceanic
Fri 06:04:00 PM 39.4902 -131.7901 295° West 493 567 29,000  Level FlightAware Transoceanic
Fri 06:05:00 PM 39.5471 -131.9514 295° West 493 567 29,000  Level FlightAware Transoceanic
Fri 06:06:00 PM 39.6038 -132.1129 294° West 493 567 29,000  Level FlightAware Transoceanic
Fri 06:07:00 PM 39.6443 -132.2528 294° West 493 567 29,000  Level FlightAware Transoceanic
Fri 06:07:10 PM 39.6500 -132.2500 294° West 492 566 29,000  Level Oakland Oceanic (ODAPS)
Fri 06:08:00 PM 39.7008 -132.4153 294° West 493 567 29,000  Level FlightAware Transoceanic
Fri 06:09:00 PM 39.7572 -132.5781 294° West 493 567 29,000  Level FlightAware Transoceanic
Fri 06:10:00 PM 39.8133 -132.7411 294° West 493 567 29,000  Level FlightAware Transoceanic
Fri 06:11:00 PM 39.8693 -132.9044 294° West 493 567 29,000  Level FlightAware Transoceanic
Fri 06:12:00 PM 39.9249 -133.0680 294° West 493 567 29,000  Level FlightAware Transoceanic
Fri 06:13:00 PM 39.9854 -133.2294 294° West 492 566 29,000  Level FlightAware Transoceanic
Fri 06:14:00 PM 40.0405 -133.3936 294° West 492 566 29,000  Level FlightAware Transoceanic
Fri 06:15:00 PM 40.0953 -133.5581 294° West 492 566 29,000  Level FlightAware Transoceanic
Fri 06:16:00 PM 40.1500 -133.7228 293° West 492 566 29,000  Level FlightAware Transoceanic
Fri 06:17:00 PM 40.2044 -133.8877 293° West 492 566 29,000  Level FlightAware Transoceanic
Fri 06:18:00 PM 40.2585 -134.0529 293° West 492 566 29,000  Level FlightAware Transoceanic
Fri 06:19:00 PM 40.3125 -134.2184 293° West 492 566 29,000  Level FlightAware Transoceanic
Fri 06:20:00 PM 40.3661 -134.3842 293° West 492 566 29,000  Level FlightAware Transoceanic
Fri 06:21:00 PM 40.4196 -134.5502 293° West 492 566 29,000  Level FlightAware Transoceanic
Fri 06:21:02 PM 40.4000 -134.5000 293° West 486 559 29,000  Level Oakland Oceanic (ODAPS)
Fri 06:22:00 PM 40.4728 -134.7165 293° West 492 566 29,000  Level FlightAware Transoceanic
Fri 06:23:00 PM 40.5258 -134.8831 293° West 492 566 29,000  Level FlightAware Transoceanic
Fri 06:24:00 PM 40.5785 -135.0499 293° West 492 566 29,000  Level FlightAware Transoceanic
Fri 06:25:00 PM 40.6310 -135.2169 292° West 492 566 29,000  Level FlightAware Transoceanic
Fri 06:26:00 PM 40.6833 -135.3843 292° West 492 566 29,000  Level FlightAware Transoceanic
Fri 06:27:00 PM 40.7102 -135.4799 292° West 486 559 29,000  Level FlightAware Transoceanic
Fri 06:28:00 PM 40.7610 -135.6441 292° West 486 559 29,000  Level FlightAware Transoceanic
Fri 06:29:00 PM 40.8117 -135.8085 292° West 486 559 29,000  Level FlightAware Transoceanic
Fri 06:30:00 PM 40.8621 -135.9732 292° West 486 559 29,000  Level FlightAware Transoceanic
Fri 06:31:00 PM 40.9123 -136.1381 292° West 486 559 29,000  Level FlightAware Transoceanic
Fri 06:32:00 PM 40.9622 -136.3033 292° West 486 559 29,000  Level FlightAware Transoceanic
Fri 06:33:00 PM 41.0120 -136.4688 292° West 486 559 29,000  Level FlightAware Transoceanic
Fri 06:34:00 PM 41.0614 -136.6345 292° West 486 559 29,000  Level FlightAware Transoceanic
Fri 06:34:55 PM 41.0833 -136.7333 292° West 474 545 29,000  Level Oakland Oceanic (ODAPS)
Fri 06:35:00 PM 41.1107 -136.8004 291° West 486 559 29,000  Level FlightAware Transoceanic
Fri 06:36:00 PM 41.1597 -136.9666 291° West 486 559 29,000  Level FlightAware Transoceanic
Fri 06:37:00 PM 41.2084 -137.1331 291° West 486 559 29,000  Level FlightAware Transoceanic
Fri 06:38:00 PM 41.2570 -137.2997 291° West 486 559 29,000  Level FlightAware Transoceanic
Fri 06:39:00 PM 41.3052 -137.4667 291° West 486 559 29,000  Level FlightAware Transoceanic
Fri 06:40:00 PM 41.3533 -137.6339 291° West 486 559 29,000  Level FlightAware Transoceanic
Fri 06:41:00 PM 41.3680 -137.7036 291° West 474 545 29,000  Level FlightAware Transoceanic
Fri 06:42:00 PM 41.4146 -137.8661 291° West 474 545 29,000  Level FlightAware Transoceanic
Fri 06:43:00 PM 41.4611 -138.0289 291° West 474 545 29,000  Level FlightAware Transoceanic
Fri 06:44:00 PM 41.5073 -138.1919 291° West 474 545 29,000  Level FlightAware Transoceanic
Fri 06:45:00 PM 41.5532 -138.3551 291° West 474 545 29,000  Level FlightAware Transoceanic
Fri 06:46:00 PM 41.5989 -138.5185 290° West 474 545 29,000  Level FlightAware Transoceanic
Fri 06:47:00 PM 41.6445 -138.6822 290° West 474 545 29,000  Level FlightAware Transoceanic
Fri 06:48:00 PM 41.6897 -138.8461 290° West 474 545 29,000  Level FlightAware Transoceanic
Fri 06:48:54 PM 41.7333 -138.9667 289° West 469 540 29,000  Level Oakland Oceanic (ODAPS)
Fri 06:49:00 PM 41.7347 -139.0103 290° West 474 545 29,000  Level FlightAware Transoceanic
Fri 06:50:00 PM 41.7795 -139.1747 290° West 474 545 29,000  Level FlightAware Transoceanic
Fri 06:51:00 PM 41.8241 -139.3393 290° West 474 545 29,000  Level FlightAware Transoceanic
Fri 06:52:00 PM 41.8684 -139.5041 290° West 474 545 29,000  Level FlightAware Transoceanic
Fri 06:53:00 PM 41.9125 -139.6692 290° West 474 545 29,000  Level FlightAware Transoceanic
Fri 06:54:00 PM 41.9564 -139.8345 290° West 474 545 29,000  Level FlightAware Transoceanic
Fri 06:55:00 PM 42.0000 -140.0000 296° West 469 540 29,000  Level FlightAware Transoceanic
Fri 06:55:03 PM 42.0000 -140.0000 296° West 459 528 29,000  Level Oakland Oceanic (ODAPS)
Fri 06:56:00 PM 42.0560 -140.1558 296° West 469 540 29,000  Level FlightAware Transoceanic
Fri 06:57:00 PM 42.1118 -140.3119 296° West 469 540 29,000  Level FlightAware Transoceanic
Fri 06:58:00 PM 42.1673 -140.4683 296° West 469 540 29,000  Level FlightAware Transoceanic
Fri 06:59:00 PM 42.2226 -140.6249 295° West 469 540 29,000  Level FlightAware Transoceanic
Fri 07:00:00 PM 42.2778 -140.7818 295° West 469 540 29,000  Level FlightAware Transoceanic
Fri 07:01:00 PM 42.3274 -140.9238 295° West 459 528 29,000  Level FlightAware Transoceanic
Fri 07:02:00 PM 42.3812 -141.0787 295° West 459 528 29,000  Level FlightAware Transoceanic
Fri 07:02:38 PM 42.4167 -141.1833 295° West 450 518 29,000  Level Oakland Oceanic (ODAPS)
Fri 07:03:00 PM 42.4349 -141.2339 295° West 459 528 29,000  Level FlightAware Transoceanic
Fri 07:04:00 PM 42.4883 -141.3893 295° West 459 528 29,000  Level FlightAware Transoceanic
Fri 07:05:00 PM 42.5415 -141.5450 295° West 459 528 29,000  Level FlightAware Transoceanic
Fri 07:06:00 PM 42.5945 -141.7009 295° West 459 528 29,000  Level FlightAware Transoceanic
Fri 07:07:00 PM 42.6473 -141.8571 295° West 459 528 29,000  Level FlightAware Transoceanic
Fri 07:08:00 PM 42.7307 -142.1078 294° West 450 518 29,000  Level FlightAware Transoceanic
Fri 07:09:00 PM 42.7823 -142.2628 294° West 450 518 29,000  Level FlightAware Transoceanic
Fri 07:10:00 PM 42.8337 -142.4180 294° West 450 518 29,000  Level FlightAware Transoceanic
Fri 07:11:00 PM 42.8849 -142.5735 294° West 450 518 29,000  Level FlightAware Transoceanic
Fri 07:12:00 PM 42.9358 -142.7293 294° West 450 518 29,000  Level FlightAware Transoceanic
Fri 07:13:00 PM 42.9866 -142.8853 294° West 450 518 29,000  Level FlightAware Transoceanic
Fri 07:14:00 PM 43.0372 -143.0415 294° West 450 518 29,000  Level FlightAware Transoceanic
Fri 07:15:00 PM 43.0875 -143.1981 294° West 450 518 29,000  Level FlightAware Transoceanic
Fri 07:16:00 PM 43.1376 -143.3549 294° West 450 518 29,000  Level FlightAware Transoceanic
Fri 07:16:30 PM 43.1500 -143.4000 294° West 448 516 29,000  Level Oakland Oceanic (ODAPS)
Fri 07:17:00 PM 43.1876 -143.5119 293° West 450 518 29,000  Level FlightAware Transoceanic
Fri 07:18:00 PM 43.2373 -143.6692 293° West 450 518 29,000  Level FlightAware Transoceanic
Fri 07:19:00 PM 43.2867 -143.8268 293° West 450 518 29,000  Level FlightAware Transoceanic
Fri 07:20:00 PM 43.3360 -143.9846 293° West 450 518 29,000  Level FlightAware Transoceanic
Fri 07:21:00 PM 43.3851 -144.1426 293° West 450 518 29,000  Level FlightAware Transoceanic
Fri 07:22:00 PM 43.4441 -144.3398 293° West 448 516 29,000  Level FlightAware Transoceanic
Fri 07:23:00 PM 43.4924 -144.4973 293° West 448 516 29,000  Level FlightAware Transoceanic
Fri 07:24:00 PM 43.5404 -144.6551 293° West 448 516 29,000  Level FlightAware Transoceanic
Fri 07:25:00 PM 43.5883 -144.8132 293° West 448 516 29,000  Level FlightAware Transoceanic
Fri 07:26:00 PM 43.6359 -144.9714 293° West 448 516 29,000  Level FlightAware Transoceanic
Fri 07:27:00 PM 43.6833 -145.1299 292° West 448 516 29,000  Level FlightAware Transoceanic
Fri 07:28:00 PM 43.7305 -145.2887 292° West 448 516 29,000  Level FlightAware Transoceanic
Fri 07:29:00 PM 43.7774 -145.4478 292° West 448 516 29,000  Level FlightAware Transoceanic
Fri 07:30:00 PM 43.8242 -145.6070 292° West 448 516 29,000  Level FlightAware Transoceanic
Fri 07:30:22 PM 43.8167 -145.6000 292° West 445 512 29,000  Level Oakland Oceanic (ODAPS)
Fri 07:31:00 PM 43.8707 -145.7666 292° West 448 516 29,000  Level FlightAware Transoceanic
Fri 07:32:00 PM 43.9170 -145.9263 292° West 448 516 29,000  Level FlightAware Transoceanic
Fri 07:33:00 PM 43.9630 -146.0863 292° West 448 516 29,000  Level FlightAware Transoceanic
Fri 07:34:00 PM 44.0089 -146.2466 292° West 448 516 29,000  Level FlightAware Transoceanic
Fri 07:35:00 PM 44.0545 -146.4071 292° West 448 516 29,000  Level FlightAware Transoceanic
Fri 07:36:00 PM 44.0941 -146.5623 291° West 445 512 29,000  Level FlightAware Transoceanic
Fri 07:37:00 PM 44.1396 -146.7236 291° West 445 512 29,000  Level FlightAware Transoceanic
Fri 07:38:00 PM 44.1848 -146.8851 291° West 445 512 29,000  Level FlightAware Transoceanic
Fri 07:39:00 PM 44.2298 -147.0468 291° West 445 512 29,000  Level FlightAware Transoceanic
Fri 07:40:00 PM 44.2746 -147.2088 291° West 445 512 29,000  Level FlightAware Transoceanic
Fri 07:41:00 PM 44.3191 -147.3710 291° West 445 512 29,000  Level FlightAware Transoceanic
Fri 07:42:00 PM 44.3634 -147.5335 291° West 445 512 29,000  Level FlightAware Transoceanic
Fri 07:43:00 PM 44.4075 -147.6963 291° West 445 512 29,000  Level FlightAware Transoceanic
Fri 07:44:00 PM 44.4514 -147.8593 291° West 445 512 29,000  Level FlightAware Transoceanic
Fri 07:44:14 PM 44.4333 -147.8000 291° West 442 509 29,000  Level Oakland Oceanic (ODAPS)
Fri 07:45:00 PM 44.4950 -148.0225 290° West 445 512 29,000  Level FlightAware Transoceanic
Fri 07:46:00 PM 44.5383 -148.1859 290° West 445 512 29,000  Level FlightAware Transoceanic
Fri 07:47:00 PM 44.5815 -148.3497 290° West 445 512 29,000  Level FlightAware Transoceanic
Fri 07:48:00 PM 44.6244 -148.5136 290° West 445 512 29,000  Level FlightAware Transoceanic
Fri 07:49:00 PM 44.6671 -148.6778 290° West 445 512 29,000  Level FlightAware Transoceanic
Fri 07:50:00 PM 44.6814 -148.7376 290° West 442 509 29,000  Level FlightAware Transoceanic
Fri 07:51:00 PM 44.7220 -148.8946 290° West 442 509 29,000  Level FlightAware Transoceanic
Fri 07:52:00 PM 44.7623 -149.0519 290° West 442 509 29,000  Level FlightAware Transoceanic
Fri 07:53:00 PM 44.8025 -149.2094 290° West 442 509 29,000  Level FlightAware Transoceanic
Fri 07:54:00 PM 44.8424 -149.3670 290° West 442 509 29,000  Level FlightAware Transoceanic
Fri 07:55:00 PM 44.8821 -149.5250 289° West 442 509 29,000  Level FlightAware Transoceanic
Fri 07:56:00 PM 44.9216 -149.6831 289° West 442 509 29,000  Level FlightAware Transoceanic
Fri 07:57:00 PM 44.9609 -149.8414 289° West 442 509 29,000  Level FlightAware Transoceanic
Fri 07:57:59 PM 45.0000 -150.0000 297° West 465 535 29,000  Level Oakland Oceanic (ODAPS)
Fri 07:58:00 PM 45.0000 -150.0000 297° West 442 509 29,000  Level FlightAware Transoceanic
Fri 07:59:00 PM 45.0621 -150.1719 297° West 442 509 29,000  Level FlightAware Transoceanic
Fri 08:00:00 PM 45.1239 -150.3441 297° West 442 509 29,000  Level FlightAware Transoceanic
Fri 08:01:00 PM 45.1854 -150.5167 297° West 442 509 29,000  Level FlightAware Transoceanic
Fri 08:02:00 PM 45.2467 -150.6897 297° West 442 509 29,000  Level FlightAware Transoceanic
Fri 08:03:00 PM 45.3077 -150.8630 297° West 442 509 29,000  Level FlightAware Transoceanic
Fri 08:04:00 PM 45.3496 -150.9828 296° West 465 535 29,000  Level FlightAware Transoceanic
Fri 08:05:00 PM 45.4071 -151.1478 296° West 465 535 29,000  Level FlightAware Transoceanic
Fri 08:06:00 PM 45.4643 -151.3131 296° West 465 535 29,000  Level FlightAware Transoceanic
Fri 08:07:00 PM 45.5213 -151.4787 296° West 465 535 29,000  Level FlightAware Transoceanic
Fri 08:08:00 PM 45.5780 -151.6447 296° West 465 535 29,000  Level FlightAware Transoceanic
Fri 08:09:00 PM 45.6345 -151.8110 296° West 465 535 29,000  Level FlightAware Transoceanic
Fri 08:10:00 PM 45.6907 -151.9776 296° West 465 535 29,000  Level FlightAware Transoceanic
Fri 08:11:00 PM 45.7467 -152.1446 296° West 465 535 29,000 504 Level FlightAware Transoceanic
Fri 08:11:59 PM 45.7500 -152.1500 296° West 460 529 30,000  Climbing Oakland Oceanic (ODAPS)
Fri 08:12:00 PM 45.8025 -152.3119 295° West 465 535 29,000 -984 Descending FlightAware Transoceanic
Fri 08:13:00 PM 45.8580 -152.4796 295° West 465 535 29,000  Level FlightAware Transoceanic
Fri 08:14:00 PM 45.9133 -152.6476 295° West 465 535 29,000  Level FlightAware Transoceanic
Fri 08:15:00 PM 45.9683 -152.8159 295° West 465 535 29,000  Level FlightAware Transoceanic
Fri 08:16:00 PM 46.0231 -152.9845 295° West 465 535 29,000  Level FlightAware Transoceanic
Fri 08:17:00 PM 46.0776 -153.1535 295° West 465 535 29,000 500 Level FlightAware Transoceanic
Fri 08:18:00 PM 46.0804 -153.1583 295° West 460 529 30,000 500 Climbing FlightAware Transoceanic
Fri 08:19:00 PM 46.1346 -153.3275 295° West 460 529 30,000  Level FlightAware Transoceanic
Fri 08:20:00 PM 46.1885 -153.4970 295° West 460 529 30,000  Level FlightAware Transoceanic
Fri 08:21:00 PM 46.2422 -153.6669 294° West 460 529 30,000  Level FlightAware Transoceanic
Fri 08:22:00 PM 46.2957 -153.8371 294° West 460 529 30,000  Level FlightAware Transoceanic
Fri 08:23:00 PM 46.3489 -154.0076 294° West 460 529 30,000  Level FlightAware Transoceanic
Fri 08:24:00 PM 46.4018 -154.1785 294° West 460 529 30,000  Level FlightAware Transoceanic
Fri 08:25:00 PM 46.4545 -154.3497 294° West 460 529 30,000  Level FlightAware Transoceanic
Fri 08:25:54 PM 46.4333 -154.2833 294° West 446 513 30,000  Level Oakland Oceanic (ODAPS)
Fri 08:26:00 PM 46.5069 -154.5213 294° West 460 529 30,000  Level FlightAware Transoceanic
Fri 08:27:00 PM 46.5591 -154.6931 294° West 460 529 30,000  Level FlightAware Transoceanic
Fri 08:28:00 PM 46.6110 -154.8653 294° West 460 529 30,000  Level FlightAware Transoceanic
Fri 08:29:00 PM 46.6627 -155.0378 293° West 460 529 30,000  Level FlightAware Transoceanic
Fri 08:30:00 PM 46.7141 -155.2107 293° West 460 529 30,000  Level FlightAware Transoceanic
Fri 08:31:00 PM 46.7652 -155.3839 293° West 460 529 30,000  Level FlightAware Transoceanic
Fri 08:32:00 PM 46.7391 -155.2974 293° West 446 513 30,000  Level FlightAware Transoceanic
Fri 08:33:00 PM 46.7892 -155.4675 293° West 446 513 30,000  Level FlightAware Transoceanic
Fri 08:34:00 PM 46.8390 -155.6380 293° West 446 513 30,000  Level FlightAware Transoceanic
Fri 08:35:00 PM 46.8886 -155.8087 293° West 446 513 30,000  Level FlightAware Transoceanic
Fri 08:36:00 PM 46.9379 -155.9798 293° West 446 513 30,000  Level FlightAware Transoceanic
Fri 08:37:00 PM 46.9869 -156.1512 293° West 446 513 30,000  Level FlightAware Transoceanic
Fri 08:38:00 PM 47.0358 -156.3229 293° West 446 513 30,000  Level FlightAware Transoceanic
Fri 08:39:00 PM 47.0843 -156.4949 292° West 446 513 30,000  Level FlightAware Transoceanic
Fri 08:39:46 PM 47.1000 -156.5833 293° West 473 544 30,000  Level Oakland Oceanic (ODAPS)
Fri 08:40:00 PM 47.1326 -156.6672 292° West 446 513 30,000  Level FlightAware Transoceanic
Fri 08:41:00 PM 47.1806 -156.8399 292° West 446 513 30,000  Level FlightAware Transoceanic
Fri 08:42:00 PM 47.2284 -157.0128 292° West 446 513 30,000  Level FlightAware Transoceanic
Fri 08:43:00 PM 47.2759 -157.1861 292° West 446 513 30,000  Level FlightAware Transoceanic
Fri 08:44:00 PM 47.3232 -157.3596 292° West 446 513 30,000  Level FlightAware Transoceanic
Fri 08:45:00 PM 47.3702 -157.5335 292° West 446 513 30,000  Level FlightAware Transoceanic
Fri 08:46:00 PM 47.4434 -157.8284 292° West 473 544 30,000  Level FlightAware Transoceanic
Fri 08:47:00 PM 47.4913 -158.0076 292° West 473 544 30,000  Level FlightAware Transoceanic
Fri 08:48:00 PM 47.5390 -158.1871 291° West 473 544 30,000  Level FlightAware Transoceanic
Fri 08:49:00 PM 47.5863 -158.3669 291° West 473 544 30,000  Level FlightAware Transoceanic
Fri 08:50:00 PM 47.6334 -158.5471 291° West 473 544 30,000  Level FlightAware Transoceanic
Fri 08:51:00 PM 47.6803 -158.7276 291° West 473 544 30,000  Level FlightAware Transoceanic
Fri 08:52:00 PM 47.7268 -158.9084 291° West 473 544 30,000  Level FlightAware Transoceanic
Fri 08:53:00 PM 47.7730 -159.0895 291° West 473 544 30,000 447 Level FlightAware Transoceanic
Fri 08:53:34 PM 47.7833 -159.1500 291° West 507 583 30,700  Climbing Oakland Oceanic (ODAPS)
Fri 08:54:00 PM 47.8190 -159.2710 291° West 473 544 30,000 -488 Descending FlightAware Transoceanic
Fri 08:55:00 PM 47.8647 -159.4528 290° West 473 544 30,000  Level FlightAware Transoceanic
Fri 08:56:00 PM 47.9101 -159.6349 290° West 473 544 30,000  Level FlightAware Transoceanic
Fri 08:57:00 PM 47.9552 -159.8173 290° West 473 544 30,000 536 Level FlightAware Transoceanic
Fri 08:57:52 PM 48.0000 -160.0000 274° West 542 624 31,000  Climbing Oakland Oceanic (ODAPS)
Fri 08:58:00 PM 48.0000 -160.0000 274° West 473 544 30,000 -265 Descending FlightAware Transoceanic
Fri 08:59:00 PM 48.0099 -160.2319 274° West 507 583 30,700 350 Climbing FlightAware Transoceanic
Fri 09:00:00 PM 48.0192 -160.4640 273° West 507 583 30,700  Level FlightAware Transoceanic
Fri 09:01:00 PM 48.0282 -160.6961 273° West 507 583 30,700  Level FlightAware Transoceanic
Fri 09:02:00 PM 48.0366 -160.9283 273° West 507 583 30,700  Level FlightAware Transoceanic
Fri 09:03:00 PM 48.0446 -161.1606 273° West 507 583 30,700 150 Level FlightAware Transoceanic
Fri 09:04:00 PM 48.0511 -161.3612 273° West 542 624 31,000 150 Climbing FlightAware Transoceanic
Fri 09:05:00 PM 48.0581 -161.5883 273° West 542 624 31,000  Level FlightAware Transoceanic
Fri 09:06:00 PM 48.0646 -161.8155 272° West 542 624 31,000  Level FlightAware Transoceanic
Fri 09:07:00 PM 48.0706 -162.0428 272° West 542 624 31,000  Level FlightAware Transoceanic
Fri 09:07:26 PM 48.0667 -162.1000 272° West 558 642 31,000  Level Oakland Oceanic (ODAPS)
Fri 09:08:00 PM 48.0763 -162.2700 272° West 542 624 31,000  Level FlightAware Transoceanic
Fri 09:09:00 PM 48.0814 -162.4974 272° West 542 624 31,000  Level FlightAware Transoceanic
Fri 09:10:00 PM 48.0861 -162.7247 272° West 542 624 31,000  Level FlightAware Transoceanic
Fri 09:11:00 PM 48.0904 -162.9521 272° West 542 624 31,000  Level FlightAware Transoceanic
Fri 09:12:00 PM 48.0942 -163.1796 271° West 542 624 31,000  Level FlightAware Transoceanic
Fri 09:13:00 PM 48.0943 -163.4943 271° West 558 642 31,000  Level FlightAware Transoceanic
Fri 09:14:00 PM 48.0973 -163.7268 271° West 558 642 31,000  Level FlightAware Transoceanic
Fri 09:15:00 PM 48.0998 -163.9593 271° West 558 642 31,000  Level FlightAware Transoceanic
Fri 09:16:00 PM 48.1018 -164.1919 271° West 558 642 31,000  Level FlightAware Transoceanic
Fri 09:17:00 PM 48.1033 -164.4245 270° West 558 642 31,000  Level FlightAware Transoceanic
Fri 09:18:00 PM 48.1044 -164.6570 270° West 558 642 31,000  Level FlightAware Transoceanic
Fri 09:19:00 PM 48.1050 -164.8896 270° West 558 642 31,000  Level FlightAware Transoceanic
Fri 09:20:00 PM 48.1052 -165.1222 270° West 558 642 31,000  Level FlightAware Transoceanic
Fri 09:21:00 PM 48.1049 -165.3548 270° West 558 642 31,000  Level FlightAware Transoceanic
Fri 09:21:19 PM 48.1000 -165.3333 270° West 578 665 31,000  Level Oakland Oceanic (ODAPS)
Fri 09:22:00 PM 48.1041 -165.5874 270° West 558 642 31,000  Level FlightAware Transoceanic
Fri 09:23:00 PM 48.1028 -165.8200 269° West 558 642 31,000  Level FlightAware Transoceanic
Fri 09:24:00 PM 48.1011 -166.0526 269° West 558 642 31,000  Level FlightAware Transoceanic
Fri 09:25:00 PM 48.0989 -166.2851 269° West 558 642 31,000  Level FlightAware Transoceanic
Fri 09:26:00 PM 48.0962 -166.5176 269° West 558 642 31,000  Level FlightAware Transoceanic
Fri 09:27:00 PM 48.0899 -166.7350 269° West 578 665 31,000  Level FlightAware Transoceanic
Fri 09:28:00 PM 48.0865 -166.9685 269° West 578 665 31,000  Level FlightAware Transoceanic
Fri 09:29:00 PM 48.0827 -167.2020 269° West 578 665 31,000  Level FlightAware Transoceanic
Fri 09:30:00 PM 48.0784 -167.4355 268° West 578 665 31,000  Level FlightAware Transoceanic
Fri 09:31:00 PM 48.0736 -167.6689 268° West 578 665 31,000  Level FlightAware Transoceanic
Fri 09:32:00 PM 48.0684 -167.9023 268° West 578 665 31,000  Level FlightAware Transoceanic
Fri 09:33:00 PM 48.0627 -168.1357 268° West 578 665 31,000  Level FlightAware Transoceanic
Fri 09:34:00 PM 48.0565 -168.3689 268° West 578 665 31,000  Level FlightAware Transoceanic
Fri 09:35:00 PM 48.0498 -168.6021 267° West 578 665 31,000  Level FlightAware Transoceanic
Fri 09:35:10 PM 48.0500 -168.6833 267° West 582 670 31,000  Level Oakland Oceanic (ODAPS)
Fri 09:36:00 PM 48.0427 -168.8353 267° West 578 665 31,000  Level FlightAware Transoceanic
Fri 09:37:00 PM 48.0351 -169.0684 267° West 578 665 31,000  Level FlightAware Transoceanic
Fri 09:38:00 PM 48.0270 -169.3014 267° West 578 665 31,000  Level FlightAware Transoceanic
Fri 09:39:00 PM 48.0185 -169.5343 267° West 578 665 31,000  Level FlightAware Transoceanic
Fri 09:40:00 PM 48.0095 -169.7672 267° West 578 665 31,000  Level FlightAware Transoceanic
Fri 09:40:39 PM 48.0000 -170.0000 265° West 583 671 31,000  Level Oakland Oceanic (ODAPS)
Fri 09:41:00 PM 47.9864 -170.2419 265° West 582 670 31,000  Level FlightAware Transoceanic
Fri 09:42:00 PM 47.9723 -170.4838 265° West 582 670 31,000  Level FlightAware Transoceanic
Fri 09:43:00 PM 47.9577 -170.7255 265° West 582 670 31,000  Level FlightAware Transoceanic
Fri 09:44:00 PM 47.9426 -170.9670 265° West 582 670 31,000  Level FlightAware Transoceanic
Fri 09:45:00 PM 47.9270 -171.2084 264° West 582 670 31,000  Level FlightAware Transoceanic
Fri 09:46:00 PM 47.9131 -171.4160 264° West 583 671 31,000  Level FlightAware Transoceanic
Fri 09:47:00 PM 47.8970 -171.6515 264° West 583 671 31,000  Level FlightAware Transoceanic
Fri 09:48:00 PM 47.8803 -171.8869 264° West 583 671 31,000  Level FlightAware Transoceanic
Fri 09:49:00 PM 47.8632 -172.1221 264° West 583 671 31,000  Level FlightAware Transoceanic
Fri 09:49:02 PM 47.8667 -172.0167 264° West 580 667 31,000  Level Oakland Oceanic (ODAPS)
Fri 09:50:00 PM 47.8456 -172.3572 264° West 583 671 31,000  Level FlightAware Transoceanic
Fri 09:51:00 PM 47.8275 -172.5921 263° West 583 671 31,000  Level FlightAware Transoceanic
Fri 09:52:00 PM 47.8089 -172.8268 263° West 583 671 31,000  Level FlightAware Transoceanic
Fri 09:53:00 PM 47.7899 -173.0614 263° West 583 671 31,000  Level FlightAware Transoceanic
Fri 09:54:00 PM 47.7704 -173.2958 263° West 583 671 31,000  Level FlightAware Transoceanic
Fri 09:55:00 PM 47.7543 -173.4434 263° West 580 667 31,000  Level FlightAware Transoceanic
Fri 09:56:00 PM 47.7338 -173.6806 263° West 580 667 31,000  Level FlightAware Transoceanic
Fri 09:57:00 PM 47.7129 -173.9176 262° West 580 667 31,000  Level FlightAware Transoceanic
Fri 09:58:00 PM 47.6915 -174.1544 262° West 580 667 31,000  Level FlightAware Transoceanic
Fri 09:59:00 PM 47.6696 -174.3909 262° West 580 667 31,000  Level FlightAware Transoceanic
Fri 10:00:00 PM 47.6472 -174.6273 262° West 580 667 31,000  Level FlightAware Transoceanic
Fri 10:01:00 PM 47.6243 -174.8635 262° West 580 667 31,000  Level FlightAware Transoceanic
Fri 10:02:00 PM 47.6009 -175.0995 262° West 580 667 31,000  Level FlightAware Transoceanic
Fri 10:02:55 PM 47.5833 -175.3000 261° West 575 662 31,000  Level Oakland Oceanic (ODAPS)
Fri 10:03:00 PM 47.5771 -175.3353 261° West 580 667 31,000  Level FlightAware Transoceanic
Fri 10:04:00 PM 47.5527 -175.5708 261° West 580 667 31,000  Level FlightAware Transoceanic
Fri 10:05:00 PM 47.5279 -175.8062 261° West 580 667 31,000  Level FlightAware Transoceanic
Fri 10:06:00 PM 47.5027 -176.0413 261° West 580 667 31,000  Level FlightAware Transoceanic
Fri 10:07:00 PM 47.4769 -176.2761 261° West 580 667 31,000  Level FlightAware Transoceanic
Fri 10:08:00 PM 47.4506 -176.5108 261° West 580 667 31,000  Level FlightAware Transoceanic
Fri 10:09:00 PM 47.4286 -176.7207 260° West 575 662 31,000  Level FlightAware Transoceanic
Fri 10:10:00 PM 47.4011 -176.9566 260° West 575 662 31,000  Level FlightAware Transoceanic
Fri 10:11:00 PM 47.3731 -177.1923 260° West 575 662 31,000  Level FlightAware Transoceanic
Fri 10:12:00 PM 47.3446 -177.4278 260° West 575 662 31,000  Level FlightAware Transoceanic
Fri 10:13:00 PM 47.3157 -177.6630 260° West 575 662 31,000  Level FlightAware Transoceanic
Fri 10:14:00 PM 47.2863 -177.8979 259° West 575 662 31,000  Level FlightAware Transoceanic
Fri 10:15:00 PM 47.2564 -178.1326 259° West 575 662 31,000  Level FlightAware Transoceanic
Fri 10:16:00 PM 47.2260 -178.3670 259° West 575 662 31,000  Level FlightAware Transoceanic
Fri 10:16:46 PM 47.2000 -178.5167 259° West 574 661 31,000  Level Oakland Oceanic (ODAPS)
Fri 10:17:00 PM 47.1951 -178.6011 259° West 575 662 31,000  Level FlightAware Transoceanic
Fri 10:18:00 PM 47.1638 -178.8350 259° West 575 662 31,000  Level FlightAware Transoceanic
Fri 10:19:00 PM 47.1320 -179.0685 259° West 575 662 31,000  Level FlightAware Transoceanic
Fri 10:20:00 PM 47.0997 -179.3018 258° West 575 662 31,000  Level FlightAware Transoceanic
Fri 10:21:00 PM 47.0669 -179.5348 258° West 575 662 31,000  Level FlightAware Transoceanic
Fri 10:22:00 PM 47.0347 -179.7536 258° West 574 661 31,000  Level FlightAware Transoceanic
Fri 10:23:00 PM 47.0000 -180.0000 265° West 574 661 31,000  Level FlightAware Transoceanic
Fri 10:23:22 PM 47.0000 180.0000 265° West 551 634 31,000  Level Oakland Oceanic (ODAPS)
Fri 10:24:00 PM 46.9874 179.7743 265° West 574 661 31,000  Level FlightAware Transoceanic
Fri 10:25:00 PM 46.9743 179.5487 265° West 574 661 31,000  Level FlightAware Transoceanic
Fri 10:26:00 PM 46.9607 179.3232 265° West 574 661 31,000  Level FlightAware Transoceanic
Fri 10:27:00 PM 46.9468 179.0979 265° West 574 661 31,000  Level FlightAware Transoceanic
Fri 10:28:00 PM 46.9323 178.8726 265° West 574 661 31,000  Level FlightAware Transoceanic
Fri 10:29:00 PM 46.9194 178.6769 264° West 551 634 31,000  Level FlightAware Transoceanic
Fri 10:30:00 PM 46.9045 178.4567 264° West 551 634 31,000  Level FlightAware Transoceanic
Fri 10:30:38 PM 46.9000 178.3000 264° West 537 618 31,000  Level Oakland Oceanic (ODAPS)
Fri 10:31:00 PM 46.8892 178.2367 264° West 551 634 31,000  Level FlightAware Transoceanic
Fri 10:32:00 PM 46.8735 178.0169 264° West 551 634 31,000  Level FlightAware Transoceanic
Fri 10:33:00 PM 46.8573 177.7971 264° West 551 634 31,000  Level FlightAware Transoceanic
Fri 10:34:00 PM 46.8407 177.5775 264° West 551 634 31,000  Level FlightAware Transoceanic
Fri 10:35:00 PM 46.8237 177.3581 263° West 551 634 31,000  Level FlightAware Transoceanic
Fri 10:36:00 PM 46.8009 177.0065 263° West 537 618 31,000  Level FlightAware Transoceanic
Fri 10:37:00 PM 46.7830 176.7914 263° West 537 618 31,000  Level FlightAware Transoceanic
Fri 10:38:00 PM 46.7647 176.5764 263° West 537 618 31,000  Level FlightAware Transoceanic
Fri 10:39:00 PM 46.7459 176.3616 263° West 537 618 31,000  Level FlightAware Transoceanic
Fri 10:40:00 PM 46.7268 176.1469 263° West 537 618 31,000  Level FlightAware Transoceanic
Fri 10:41:00 PM 46.7073 175.9324 262° West 537 618 31,000  Level FlightAware Transoceanic
Fri 10:42:00 PM 46.6873 175.7180 262° West 537 618 31,000  Level FlightAware Transoceanic
Fri 10:43:00 PM 46.6670 175.5038 262° West 537 618 31,000  Level FlightAware Transoceanic
Fri 10:44:00 PM 46.6463 175.2898 262° West 537 618 31,000  Level FlightAware Transoceanic
Fri 10:44:31 PM 46.6333 175.1667 262° West 543 625 31,000  Level Oakland Oceanic (ODAPS)
Fri 10:45:00 PM 46.6251 175.0759 262° West 537 618 31,000  Level FlightAware Transoceanic
Fri 10:46:00 PM 46.6036 174.8622 262° West 537 618 31,000  Level FlightAware Transoceanic
Fri 10:47:00 PM 46.5817 174.6487 261° West 537 618 31,000  Level FlightAware Transoceanic
Fri 10:48:00 PM 46.5593 174.4353 261° West 537 618 31,000  Level FlightAware Transoceanic
Fri 10:49:00 PM 46.5366 174.2222 261° West 537 618 31,000  Level FlightAware Transoceanic
Fri 10:50:00 PM 46.4969 173.8641 261° West 543 625 31,000  Level FlightAware Transoceanic
Fri 10:51:00 PM 46.4727 173.6476 261° West 543 625 31,000  Level FlightAware Transoceanic
Fri 10:52:00 PM 46.4482 173.4314 261° West 543 625 31,000  Level FlightAware Transoceanic
Fri 10:53:00 PM 46.4232 173.2153 260° West 543 625 31,000  Level FlightAware Transoceanic
Fri 10:54:00 PM 46.3978 172.9995 260° West 543 625 31,000  Level FlightAware Transoceanic
Fri 10:55:00 PM 46.3720 172.7838 260° West 543 625 31,000  Level FlightAware Transoceanic
Fri 10:56:00 PM 46.3458 172.5684 260° West 543 625 31,000  Level FlightAware Transoceanic
Fri 10:57:00 PM 46.3191 172.3531 260° West 543 625 31,000  Level FlightAware Transoceanic
Fri 10:58:00 PM 46.2921 172.1381 260° West 543 625 31,000  Level FlightAware Transoceanic
Fri 10:58:38 PM 46.3000 172.1500 259° West 547 629 31,000  Level Oakland Oceanic (ODAPS)
Fri 10:59:00 PM 46.2647 171.9233 259° West 543 625 31,000  Level FlightAware Transoceanic
Fri 11:00:00 PM 46.2369 171.7087 259° West 543 625 31,000  Level FlightAware Transoceanic
Fri 11:01:00 PM 46.2087 171.4943 259° West 543 625 31,000  Level FlightAware Transoceanic
Fri 11:02:00 PM 46.1801 171.2802 259° West 543 625 31,000  Level FlightAware Transoceanic
Fri 11:03:00 PM 46.1511 171.0662 259° West 543 625 31,000  Level FlightAware Transoceanic
Fri 11:04:00 PM 46.1248 170.8572 258° West 547 629 31,000  Level FlightAware Transoceanic
Fri 11:05:00 PM 46.0942 170.6425 258° West 547 629 31,000  Level FlightAware Transoceanic
Fri 11:06:00 PM 46.0632 170.4281 258° West 547 629 31,000  Level FlightAware Transoceanic
Fri 11:07:00 PM 46.0318 170.2139 258° West 547 629 31,000  Level FlightAware Transoceanic
Fri 11:08:00 PM 46.0000 170.0000 251° West 547 629 31,000  Level FlightAware Transoceanic
Fri 11:08:39 PM 46.0000 170.0000 251° West 477 549 31,000  Level Oakland Oceanic (ODAPS)
Fri 11:09:00 PM 45.9559 169.8190 251° West 547 629 31,000  Level FlightAware Transoceanic
Fri 11:10:00 PM 45.9115 169.6383 250° West 547 629 31,000  Level FlightAware Transoceanic
Fri 11:11:00 PM 45.8669 169.4579 250° West 547 629 31,000  Level FlightAware Transoceanic
Fri 11:12:00 PM 45.8220 169.2777 250° West 547 629 31,000  Level FlightAware Transoceanic
Fri 11:12:14 PM 45.8333 169.3000 250° West 455 524 31,000  Level Oakland Oceanic (ODAPS)
Fri 11:13:00 PM 45.7767 169.0979 250° West 547 629 31,000  Level FlightAware Transoceanic
Fri 11:14:00 PM 45.7359 168.9366 250° West 477 549 31,000  Level FlightAware Transoceanic
Fri 11:15:00 PM 45.6909 168.7603 250° West 477 549 31,000  Level FlightAware Transoceanic
Fri 11:16:00 PM 45.6457 168.5843 250° West 477 549 31,000  Level FlightAware Transoceanic
Fri 11:17:00 PM 45.6002 168.4086 250° West 477 549 31,000  Level FlightAware Transoceanic
Fri 11:18:00 PM 45.5716 168.2790 249° West 455 524 31,000  Level FlightAware Transoceanic
Fri 11:19:00 PM 45.5271 168.1098 249° West 455 524 31,000  Level FlightAware Transoceanic
Fri 11:20:00 PM 45.4823 167.9408 249° West 455 524 31,000  Level FlightAware Transoceanic
Fri 11:21:00 PM 45.4373 167.7721 249° West 455 524 31,000  Level FlightAware Transoceanic
Fri 11:22:00 PM 45.3920 167.6037 249° West 455 524 31,000  Level FlightAware Transoceanic
Fri 11:23:00 PM 45.3465 167.4355 249° West 455 524 31,000  Level FlightAware Transoceanic
Fri 11:24:00 PM 45.3008 167.2676 249° West 455 524 31,000  Level FlightAware Transoceanic
Fri 11:25:00 PM 45.2548 167.1000 249° West 455 524 31,000  Level FlightAware Transoceanic
Fri 11:26:00 PM 45.2085 166.9327 249° West 455 524 31,000  Level FlightAware Transoceanic
Fri 11:26:06 PM 45.1833 166.8833 249° West 435 501 31,000  Level Oakland Oceanic (ODAPS)
Fri 11:27:00 PM 45.1620 166.7656 248° West 455 524 31,000  Level FlightAware Transoceanic
Fri 11:28:00 PM 45.1153 166.5988 248° West 455 524 31,000  Level FlightAware Transoceanic
Fri 11:29:00 PM 45.0684 166.4323 248° West 455 524 31,000  Level FlightAware Transoceanic
Fri 11:30:00 PM 45.0211 166.2660 248° West 455 524 31,000  Level FlightAware Transoceanic
Fri 11:31:00 PM 44.9737 166.1001 248° West 455 524 31,000  Level FlightAware Transoceanic
Fri 11:32:00 PM 44.9165 165.9363 248° West 435 501 31,000  Level FlightAware Transoceanic
Fri 11:33:00 PM 44.8713 165.7793 248° West 435 501 31,000  Level FlightAware Transoceanic
Fri 11:34:00 PM 44.8259 165.6226 248° West 435 501 31,000  Level FlightAware Transoceanic
Fri 11:35:00 PM 44.7802 165.4661 248° West 435 501 31,000  Level FlightAware Transoceanic
Fri 11:36:00 PM 44.7344 165.3099 247° West 435 501 31,000  Level FlightAware Transoceanic
Fri 11:37:00 PM 44.6883 165.1539 247° West 435 501 31,000  Level FlightAware Transoceanic
Fri 11:38:00 PM 44.6420 164.9982 247° West 435 501 31,000  Level FlightAware Transoceanic
Fri 11:39:00 PM 44.5955 164.8427 247° West 435 501 31,000  Level FlightAware Transoceanic
Fri 11:40:00 PM 44.5488 164.6875 247° West 435 501 31,000  Level FlightAware Transoceanic
Fri 11:40:06 PM 44.5500 164.7000 247° West 432 497 31,000  Level Oakland Oceanic (ODAPS)
Fri 11:41:00 PM 44.5019 164.5325 247° West 435 501 31,000  Level FlightAware Transoceanic
Fri 11:42:00 PM 44.4547 164.3777 247° West 435 501 31,000  Level FlightAware Transoceanic
Fri 11:43:00 PM 44.4074 164.2233 247° West 435 501 31,000  Level FlightAware Transoceanic
Fri 11:44:00 PM 44.3599 164.0690 247° West 435 501 31,000  Level FlightAware Transoceanic
Fri 11:45:00 PM 44.3121 163.9150 247° West 435 501 31,000  Level FlightAware Transoceanic
Fri 11:46:00 PM 44.2652 163.7713 246° West 432 497 31,000  Level FlightAware Transoceanic
Fri 11:47:00 PM 44.2170 163.6174 246° West 432 497 31,000  Level FlightAware Transoceanic
Fri 11:48:00 PM 44.1686 163.4638 246° West 432 497 31,000  Level FlightAware Transoceanic
Fri 11:49:00 PM 44.1200 163.3104 246° West 432 497 31,000  Level FlightAware Transoceanic
Fri 11:50:00 PM 44.0712 163.1573 246° West 432 497 31,000  Level FlightAware Transoceanic
Fri 11:51:00 PM 44.0222 163.0044 246° West 432 497 31,000  Level FlightAware Transoceanic
Fri 11:52:00 PM 43.9729 162.8517 246° West 432 497 31,000  Level FlightAware Transoceanic
Fri 11:53:00 PM 43.9235 162.6994 246° West 432 497 31,000  Level FlightAware Transoceanic
Fri 11:54:00 PM 43.8739 162.5472 246° West 432 497 31,000  Level FlightAware Transoceanic
Fri 11:55:00 PM 43.8241 162.3954 245° Southwest 432 497 31,000  Level FlightAware Transoceanic
Fri 11:56:00 PM 43.7740 162.2437 245° Southwest 432 497 31,000  Level FlightAware Transoceanic
Fri 11:57:00 PM 43.7238 162.0924 245° Southwest 432 497 31,000  Level FlightAware Transoceanic
Fri 11:58:00 PM 43.6734 161.9413 245° Southwest 432 497 31,000  Level FlightAware Transoceanic
Fri 11:59:00 PM 43.6228 161.7904 245° Southwest 432 497 31,000  Level FlightAware Transoceanic
Sat 12:00:00 AM 43.5719 161.6398 245° Southwest 432 497 31,000  Level FlightAware Transoceanic
Sat 12:01:00 AM 43.5209 161.4895 245° Southwest 432 497 31,000  Level FlightAware Transoceanic
Sat 12:02:00 AM 43.4697 161.3394 245° Southwest 432 497 31,000  Level FlightAware Transoceanic
Sat 12:03:00 AM 43.4183 161.1895 245° Southwest 432 497 31,000  Level FlightAware Transoceanic
Sat 12:04:00 AM 43.3667 161.0399 245° Southwest 432 497 31,000  Level FlightAware Transoceanic
Sat 12:05:00 AM 43.3149 160.8906 244° Southwest 432 497 31,000  Level FlightAware Transoceanic
Sat 12:06:00 AM 43.2629 160.7415 244° Southwest 432 497 31,000  Level FlightAware Transoceanic
Sat 12:07:00 AM 43.2107 160.5927 244° Southwest 432 497 31,000  Level FlightAware Transoceanic
Sat 12:08:00 AM 43.1583 160.4442 244° Southwest 432 497 31,000  Level FlightAware Transoceanic
Sat 12:09:00 AM 43.1057 160.2959 244° Southwest 432 497 31,000  Level FlightAware Transoceanic
Sat 12:10:00 AM 43.0530 160.1478 244° Southwest 432 497 31,000  Level FlightAware Transoceanic
Sat 12:11:00 AM 43.0000 160.0000 247° West 432 497 31,000  Level FlightAware Transoceanic
Sat 12:12:00 AM 42.9522 159.8485 247° West 432 497 31,000  Level FlightAware Transoceanic
Sat 12:13:00 AM 42.9043 159.6973 247° West 432 497 31,000  Level FlightAware Transoceanic
Sat 12:14:00 AM 42.8561 159.5462 246° West 432 497 31,000  Level FlightAware Transoceanic
Sat 12:15:00 AM 42.8078 159.3955 246° West 432 497 31,000  Level FlightAware Transoceanic
Sat 12:16:00 AM 42.7592 159.2449 246° West 432 497 31,000  Level FlightAware Transoceanic
Sat 12:17:00 AM 42.7105 159.0946 246° West 432 497 31,000  Level FlightAware Transoceanic
Sat 12:18:00 AM 42.6615 158.9445 246° West 432 497 31,000  Level FlightAware Transoceanic
Sat 12:19:00 AM 42.6124 158.7947 246° West 432 497 31,000  Level FlightAware Transoceanic
Sat 12:20:00 AM 42.5630 158.6451 246° West 432 497 31,000  Level FlightAware Transoceanic
Sat 12:21:00 AM 42.5135 158.4957 246° West 432 497 31,000  Level FlightAware Transoceanic
Sat 12:22:00 AM 42.4638 158.3466 246° West 432 497 31,000  Level FlightAware Transoceanic
Sat 12:23:00 AM 42.4138 158.1977 246° West 432 497 31,000  Level FlightAware Transoceanic
Sat 12:24:00 AM 42.3637 158.0491 245° Southwest 432 497 31,000  Level FlightAware Transoceanic
Sat 12:25:00 AM 42.3134 157.9007 245° Southwest 432 497 31,000  Level FlightAware Transoceanic
Sat 12:26:00 AM 42.2629 157.7525 245° Southwest 432 497 31,000  Level FlightAware Transoceanic
Sat 12:27:00 AM 42.2123 157.6046 245° Southwest 432 497 31,000  Level FlightAware Transoceanic
Sat 12:28:00 AM 42.1614 157.4569 245° Southwest 432 497 31,000  Level FlightAware Transoceanic
Sat 12:29:00 AM 42.1103 157.3094 245° Southwest 432 497 31,000  Level FlightAware Transoceanic
Sat 12:30:00 AM 42.0591 157.1622 245° Southwest 432 497 31,000  Level FlightAware Transoceanic
Sat 12:31:00 AM 42.0076 157.0152 245° Southwest 432 497 31,000  Level FlightAware Transoceanic
Sat 12:32:00 AM 41.9560 156.8685 245° Southwest 432 497 31,000  Level FlightAware Transoceanic
Sat 12:33:00 AM 41.9042 156.7219 245° Southwest 432 497 31,000  Level FlightAware Transoceanic
Sat 12:34:00 AM 41.8522 156.5757 244° Southwest 432 497 31,000  Level FlightAware Transoceanic
Sat 12:35:00 AM 41.8000 156.4296 244° Southwest 432 497 31,000  Level FlightAware Transoceanic
Sat 12:36:00 AM 41.7476 156.2838 244° Southwest 432 497 31,000  Level FlightAware Transoceanic
Sat 12:37:00 AM 41.6951 156.1383 244° Southwest 432 497 31,000  Level FlightAware Transoceanic
Sat 12:38:00 AM 41.6423 155.9930 244° Southwest 432 497 31,000  Level FlightAware Transoceanic
Sat 12:39:00 AM 41.5894 155.8479 244° Southwest 432 497 31,000  Level FlightAware Transoceanic
Sat 12:40:00 AM 41.5363 155.7030 244° Southwest 432 497 31,000  Level FlightAware Transoceanic
Sat 12:41:00 AM 41.4830 155.5584 244° Southwest 432 497 31,000  Level FlightAware Transoceanic
Sat 12:42:00 AM 41.4296 155.4141 244° Southwest 432 497 31,000  Level FlightAware Transoceanic
Sat 12:43:00 AM 41.3759 155.2699 244° Southwest 432 497 31,000  Level FlightAware Transoceanic
Sat 12:44:00 AM 41.3221 155.1261 243° Southwest 432 497 31,000  Level FlightAware Transoceanic
Sat 12:45:00 AM 41.2681 154.9824 243° Southwest 432 497 31,000  Level FlightAware Transoceanic
Sat 12:46:00 AM 41.2139 154.8390 243° Southwest 432 497 31,000  Level FlightAware Transoceanic
Sat 12:47:00 AM 41.1596 154.6958 243° Southwest 432 497 31,000  Level FlightAware Transoceanic
Sat 12:48:00 AM 41.1050 154.5529 243° Southwest 432 497 31,000  Level FlightAware Transoceanic
Sat 12:49:00 AM 41.0503 154.4102 243° Southwest 432 497 31,000  Level FlightAware Transoceanic
Sat 12:50:00 AM 40.9954 154.2677 243° Southwest 432 497 31,000  Level FlightAware Transoceanic
Sat 12:51:00 AM 40.9404 154.1255 243° Southwest 432 497 31,000  Level FlightAware Transoceanic
Sat 12:52:00 AM 40.8851 153.9835 243° Southwest 432 497 31,000  Level FlightAware Transoceanic
Sat 12:53:00 AM 40.8297 153.8417 243° Southwest 432 497 31,000  Level FlightAware Transoceanic
Sat 12:54:00 AM 40.7741 153.7002 243° Southwest 432 497 31,000  Level FlightAware Transoceanic
Sat 12:55:00 AM 40.7184 153.5589 242° Southwest 432 497 31,000  Level FlightAware Transoceanic
Sat 12:56:00 AM 40.6625 153.4179 242° Southwest 432 497 31,000  Level FlightAware Transoceanic
Sat 12:57:00 AM 40.6064 153.2771 242° Southwest 432 497 31,000  Level FlightAware Transoceanic
Sat 12:58:00 AM 40.5501 153.1365 242° Southwest 432 497 31,000  Level FlightAware Transoceanic
Sat 12:59:00 AM 40.4936 152.9962 242° Southwest 432 497 31,000  Level FlightAware Transoceanic
Sat 01:00:00 AM 40.4370 152.8561 242° Southwest 432 497 31,000  Level FlightAware Transoceanic
Sat 01:01:00 AM 40.3803 152.7162 242° Southwest 432 497 31,000  Level FlightAware Transoceanic
Sat 01:02:00 AM 40.3233 152.5766 242° Southwest 432 497 31,000  Level FlightAware Transoceanic
Sat 01:03:00 AM 40.2662 152.4372 242° Southwest 432 497 31,000  Level FlightAware Transoceanic
Sat 01:04:00 AM 40.2089 152.2981 242° Southwest 432 497 31,000  Level FlightAware Transoceanic
Sat 01:05:00 AM 40.1515 152.1591 242° Southwest 432 497 31,000  Level FlightAware Transoceanic
Sat 01:06:00 AM 40.0938 152.0205 241° Southwest 432 497 31,000  Level FlightAware Transoceanic
Sat 01:07:00 AM 40.0361 151.8820 241° Southwest 432 497 31,000  Level FlightAware Transoceanic
Sat 01:08:00 AM 39.9781 151.7438 241° Southwest 432 497 31,000  Level FlightAware Transoceanic
Sat 01:09:00 AM 39.9200 151.6058 241° Southwest 432 497 31,000  Level FlightAware Transoceanic
Sat 01:10:00 AM 39.8618 151.4681 241° Southwest 432 497 31,000  Level FlightAware Transoceanic
Sat 01:11:00 AM 39.8033 151.3306 241° Southwest 432 497 31,000  Level FlightAware Transoceanic
Sat 01:12:00 AM 39.7447 151.1933 241° Southwest 432 497 31,000  Level FlightAware Transoceanic
Sat 01:13:00 AM 39.6860 151.0562 241° Southwest 432 497 31,000  Level FlightAware Transoceanic
Sat 01:14:00 AM 39.6270 150.9194 241° Southwest 432 497 31,000  Level FlightAware Transoceanic
Sat 01:15:00 AM 39.5680 150.7829 241° Southwest 432 497 31,000  Level FlightAware Transoceanic
Sat 01:16:00 AM 39.5087 150.6465 241° Southwest 432 497 31,000  Level FlightAware Transoceanic
Sat 01:17:00 AM 39.4493 150.5104 240° Southwest 432 497 31,000  Level FlightAware Transoceanic
Sat 01:18:00 AM 39.3898 150.3745 240° Southwest 432 497 31,000  Level FlightAware Transoceanic
Sat 01:19:00 AM 39.3301 150.2389 240° Southwest 432 497 31,000  Level FlightAware Transoceanic
Sat 01:20:00 AM 39.2702 150.1035 240° Southwest 432 497 31,000  Level FlightAware Transoceanic
Sat 01:21:00 AM 39.2102 149.9683 240° Southwest 432 497 31,000 87 Level FlightAware Transoceanic
Sat 01:22:00 AM 39.1532 149.8247 243° Southwest  Level FlightAware Approximate
Sat 01:23:00 AM 39.0961 149.6813 243° Southwest  Level FlightAware Approximate
Sat 01:24:00 AM 39.0890 149.6801 240° Southwest  Level FlightAware Approximate
Sat 01:25:00 AM 39.0265 149.5406 240° Southwest  Level FlightAware Approximate
Sat 01:26:00 AM 38.9639 149.4014 240° Southwest  Level FlightAware Approximate
Sat 01:27:00 AM 38.9010 149.2624 240° Southwest  Level FlightAware Approximate
Sat 01:28:00 AM 38.8380 149.1237 240° Southwest  Level FlightAware Approximate
Sat 01:29:00 AM 38.7749 148.9853 240° Southwest  Level FlightAware Approximate
Sat 01:30:00 AM 38.7116 148.8470 240° Southwest  Level FlightAware Approximate
Sat 01:31:00 AM 38.6481 148.7091 240° Southwest  Level FlightAware Approximate
Sat 01:32:00 AM 38.5844 148.5713 239° Southwest  Level FlightAware Approximate
Sat 01:33:00 AM 38.5206 148.4338 239° Southwest  Level FlightAware Approximate
Sat 01:34:00 AM 38.4566 148.2966 239° Southwest  Level FlightAware Approximate
Sat 01:35:00 AM 38.3925 148.1596 239° Southwest  Level FlightAware Approximate
Sat 01:36:00 AM 38.3282 148.0228 239° Southwest  Level FlightAware Approximate
Sat 01:37:00 AM 38.2638 147.8863 239° Southwest  Level FlightAware Approximate
Sat 01:38:00 AM 38.1992 147.7500 239° Southwest  Level FlightAware Approximate
Sat 01:39:00 AM 38.1350 147.6136 239° Southwest  Level FlightAware Approximate
Sat 01:40:00 AM 38.0707 147.4773 239° Southwest  Level FlightAware Approximate
Sat 01:41:00 AM 38.0063 147.3412 239° Southwest  Level FlightAware Approximate
Sat 01:42:00 AM 37.9418 147.2054 239° Southwest  Level FlightAware Approximate
Sat 01:43:00 AM 37.8771 147.0698 239° Southwest  Level FlightAware Approximate
Sat 01:44:00 AM 37.8122 146.9344 239° Southwest  Level FlightAware Approximate
Sat 01:45:00 AM 37.7472 146.7993 239° Southwest  Level FlightAware Approximate
Sat 01:46:00 AM 37.6820 146.6644 239° Southwest  Level FlightAware Approximate
Sat 01:47:00 AM 37.6167 146.5298 239° Southwest  Level FlightAware Approximate
Sat 01:48:00 AM 37.5513 146.3954 238° Southwest  Level FlightAware Approximate
Sat 01:49:00 AM 37.4856 146.2612 238° Southwest  Level FlightAware Approximate
Sat 01:50:00 AM 37.4199 146.1272 238° Southwest  Level FlightAware Approximate
Sat 01:51:00 AM 37.3539 145.9935 238° Southwest  Level FlightAware Approximate
Sat 01:52:00 AM 37.2879 145.8601 238° Southwest  Level FlightAware Approximate
Sat 01:53:00 AM 37.2216 145.7268 238° Southwest  Level FlightAware Approximate
Sat 01:54:00 AM 37.1766 145.5842 263° West  Level FlightAware Approximate
Sat 01:55:00 AM 37.1604 145.4286 263° West  Level FlightAware Approximate
Sat 01:56:00 AM 37.1440 145.2731 263° West  Level FlightAware Approximate
Sat 01:57:00 AM 37.1274 145.1177 262° West  Level FlightAware Approximate
Sat 01:58:00 AM 37.1106 144.9623 262° West  Level FlightAware Approximate
Sat 01:59:00 AM 37.0936 144.8070 262° West  Level FlightAware Approximate
Sat 02:00:00 AM 37.0764 144.6517 262° West  Level FlightAware Approximate
Sat 02:01:00 AM 37.0590 144.4966 262° West  Level FlightAware Approximate
Sat 02:02:00 AM 37.0414 144.3415 262° West  Level FlightAware Approximate
Sat 02:03:00 AM 37.0236 144.1865 262° West  Level FlightAware Approximate
Sat 02:04:00 AM 37.0056 144.0315 262° West  Level FlightAware Approximate
Sat 02:05:00 AM 36.9388 143.9075 225° Southwest  Level FlightAware Approximate
Sat 02:06:00 AM 36.8498 143.7977 225° Southwest  Level FlightAware Approximate
Sat 02:07:00 AM 36.7607 143.6882 225° Southwest  Level FlightAware Approximate
Sat 02:08:00 AM 36.6715 143.5789 225° Southwest  Level FlightAware Approximate
Sat 02:09:00 AM 36.5821 143.4698 224° Southwest  Level FlightAware Approximate
Sat 02:10:00 AM 36.4928 143.3610 224° Southwest  Level FlightAware Approximate
Sat 02:11:00 AM 36.4033 143.2525 224° Southwest  Level FlightAware Approximate
Sat 02:12:00 AM 36.3137 143.1442 224° Southwest  Level FlightAware Approximate
Sat 02:13:00 AM 36.2240 143.0362 224° Southwest  Level FlightAware Approximate
Sat 02:14:00 AM 36.1342 142.9284 224° Southwest  Level FlightAware Approximate
Sat 02:15:00 AM 36.0443 142.8208 224° Southwest  Level FlightAware Approximate
Sat 02:16:00 AM 35.9543 142.7135 224° Southwest  Level FlightAware Approximate
Sat 02:17:00 AM 35.8643 142.6064 224° Southwest  Level FlightAware Approximate
Sat 02:17:42 AM 36.1830 143.3790 236° Southwest 435 501 36,000  Level FlightAware ADS-B
Sat 02:18:00 AM 35.7840 142.4894 236° Southwest  Level FlightAware Approximate
Sat 02:18:27 AM 36.1400 143.2930 238° Southwest 435 501 36,000  Level FlightAware ADS-B
Sat 02:19:07 AM 36.1030 143.2210 238° Southwest 435 501 36,000  Level FlightAware ADS-B
Sat 02:19:52 AM 36.0500 143.1150 238° Southwest 427 491 36,000  Level FlightAware ADS-B
Sat 02:20:32 AM 36.0040 143.0240 238° Southwest 423 487 36,000  Level FlightAware ADS-B
Sat 02:21:22 AM 35.9490 142.9160 238° Southwest 419 482 36,000  Level FlightAware ADS-B
Sat 02:22:02 AM 35.9090 142.8380 238° Southwest 416 479 36,000  Level FlightAware ADS-B
Sat 02:22:42 AM 35.8680 142.7560 238° Southwest 411 473 36,000  Level FlightAware ADS-B
Sat 02:23:27 AM 35.8310 142.6860 237° Southwest 412 474 36,000  Level FlightAware ADS-B
Sat 02:24:07 AM 35.7870 142.5990 238° Southwest 411 473 36,000  Level FlightAware ADS-B
Sat 02:24:52 AM 35.7390 142.5070 237° Southwest 406 467 36,000  Level FlightAware ADS-B
Sat 02:25:32 AM 35.6990 142.4290 238° Southwest 404 465 36,000  Level FlightAware ADS-B
Sat 02:26:12 AM 35.6610 142.3550 238° Southwest 403 464 36,000  Level FlightAware ADS-B
Sat 02:26:57 AM 35.6120 142.2610 237° Southwest 401 461 36,000  Level FlightAware ADS-B
Sat 02:27:27 AM 35.5820 142.2040 237° Southwest 401 461 36,000  Level FlightAware ADS-B
Sat 02:28:17 AM 35.5330 142.1090 238° Southwest 402 463 36,000  Level FlightAware ADS-B
Sat 02:29:02 AM 35.4910 142.0290 237° Southwest 403 464 36,000  Level FlightAware ADS-B
Sat 02:29:42 AM 35.4520 141.9540 237° Southwest 403 464 36,000  Level FlightAware ADS-B
Sat 02:30:22 AM 35.4100 141.8750 237° Southwest 403 464 36,000  Level FlightAware ADS-B
Sat 02:31:07 AM 35.3640 141.7860 238° Southwest 397 457 36,000  Level FlightAware ADS-B
Sat 02:31:52 AM 35.3150 141.6940 237° Southwest 400 460 36,000  Level FlightAware ADS-B
Sat 02:32:32 AM 35.2760 141.6210 237° Southwest 398 458 36,000  Level FlightAware ADS-B
Sat 02:33:17 AM 35.2310 141.5350 237° Southwest 397 457 36,000  Level FlightAware ADS-B
Sat 02:33:57 AM 35.1910 141.4600 237° Southwest 396 456 36,000  Level FlightAware ADS-B
Sat 02:34:32 AM 35.1570 141.3950 237° Southwest 396 456 36,000  Level FlightAware ADS-B
Sat 02:35:22 AM 35.1080 141.3030 237° Southwest 391 450 36,000  Level FlightAware ADS-B
Sat 02:36:02 AM 35.0700 141.2320 237° Southwest 387 445 36,000  Level FlightAware ADS-B
Sat 02:36:42 AM 35.0280 141.1540 237° Southwest 383 441 36,000  Level FlightAware ADS-B
Sat 02:37:27 AM 34.9850 141.0730 237° Southwest 381 438 36,000  Level FlightAware ADS-B
Sat 02:38:07 AM 34.9480 141.0060 236° Southwest 378 435 36,000  Level FlightAware ADS-B
Sat 02:38:47 AM 34.9090 140.9320 237° Southwest 377 434 36,000 282 Level FlightAware ADS-B
Sat 02:39:32 AM 34.8660 140.8540 236° Southwest 376 433 36,400  Climbing FlightAware ADS-B
Sat 02:40:27 AM 34.8140 140.7570 237° Southwest 378 435 36,000 -267 Descending FlightAware ADS-B
Sat 02:41:02 AM 34.7820 140.6980 237° Southwest 379 436 36,000  Level FlightAware ADS-B
Sat 02:41:42 AM 34.7400 140.6210 236° Southwest 380 437 36,000  Level FlightAware ADS-B
Sat 02:42:37 AM 34.6880 140.5250 237° Southwest 380 437 36,000  Level FlightAware ADS-B
Sat 02:43:32 AM 34.6370 140.4320 236° Southwest 378 435 36,000  Level FlightAware ADS-B
Sat 02:44:12 AM 34.5960 140.3580 236° Southwest 370 426 36,000  Level FlightAware ADS-B
Sat 02:44:47 AM 34.5630 140.2970 237° Southwest 368 423 36,000  Level FlightAware ADS-B
Sat 02:45:37 AM 34.5160 140.2130 236° Southwest 376 433 36,000  Level FlightAware ADS-B
Sat 02:46:32 AM 34.4640 140.1180 236° Southwest 377 434 36,000  Level FlightAware ADS-B
Sat 02:47:12 AM 34.4250 140.0470 236° Southwest 379 436 36,000  Level FlightAware ADS-B
Sat 02:47:57 AM 34.3830 139.9710 236° Southwest 379 436 36,000  Level FlightAware ADS-B
Sat 02:48:37 AM 34.3430 139.8990 236° Southwest 380 437 36,000  Level FlightAware ADS-B
Sat 02:49:12 AM 34.3060 139.8330 236° Southwest 381 438 36,000  Level FlightAware ADS-B
Sat 02:50:02 AM 34.2620 139.7530 236° Southwest 384 442 36,000  Level FlightAware ADS-B
Sat 02:50:42 AM 34.2200 139.6780 236° Southwest 385 443 36,000  Level FlightAware ADS-B
Sat 02:51:22 AM 34.1820 139.6100 236° Southwest 384 442 36,000  Level FlightAware ADS-B
Sat 02:52:07 AM 34.1310 139.5190 236° Southwest 378 435 36,000  Level FlightAware ADS-B
Sat 02:52:52 AM 34.1070 139.4290 252° West 370 426 36,000  Level FlightAware ADS-B
Sat 02:53:32 AM 34.0940 139.3490 259° West 373 429 36,000  Level FlightAware ADS-B
Sat 02:54:12 AM 34.0810 139.2680 259° West 371 427 36,000  Level FlightAware ADS-B
Sat 02:54:57 AM 34.0650 139.1740 258° West 370 426 36,000  Level FlightAware ADS-B
Sat 02:55:37 AM 34.0520 139.0930 259° West 371 427 36,000  Level FlightAware ADS-B
Sat 02:56:17 AM 34.0390 139.0170 258° West 369 425 36,000  Level FlightAware ADS-B
Sat 02:57:02 AM 34.0230 138.9250 258° West 369 425 36,000  Level FlightAware ADS-B
Sat 02:58:12 AM 33.9990 138.7820 259° West 368 423 36,000  Level FlightAware ADS-B
Sat 02:59:22 AM 33.9750 138.6470 258° West 368 423 36,000  Level FlightAware ADS-B
Sat 02:59:57 AM 33.9620 138.5690 259° West 368 423 36,000  Level FlightAware ADS-B
Sat 03:00:37 AM 33.9480 138.4870 258° West 368 423 36,000  Level FlightAware ADS-B
Sat 03:01:27 AM 33.9310 138.3890 258° West 367 422 36,000  Level FlightAware ADS-B
Sat 03:02:12 AM 33.9150 138.2980 258° West 367 422 36,000  Level FlightAware ADS-B
Sat 03:02:52 AM 33.9010 138.2220 258° West 368 423 36,000  Level FlightAware ADS-B
Sat 03:03:32 AM 33.8870 138.1370 259° West 367 422 36,000  Level FlightAware ADS-B
Sat 03:04:07 AM 33.8740 138.0650 258° West 366 421 36,000  Level FlightAware ADS-B
Sat 03:04:57 AM 33.8570 137.9690 258° West 365 420 36,000  Level FlightAware ADS-B
Sat 03:05:37 AM 33.8420 137.8860 258° West 365 420 36,000  Level FlightAware ADS-B
Sat 03:06:22 AM 33.8260 137.7970 258° West 366 421 36,000  Level FlightAware ADS-B
Sat 03:07:02 AM 33.8110 137.7170 257° West 368 423 36,000 212 Level FlightAware ADS-B
Sat 03:07:47 AM 33.7950 137.6260 258° West 372 428 36,300 776 Climbing FlightAware ADS-B
Sat 03:08:27 AM 33.7800 137.5460 257° West 372 428 37,100 1,200 Climbing FlightAware ADS-B
Sat 03:09:07 AM 33.7660 137.4680 258° West 367 422 37,900 635 Climbing FlightAware ADS-B
Sat 03:09:52 AM 33.7490 137.3760 257° West 368 423 38,000 71 Climbing FlightAware ADS-B
Sat 03:10:32 AM 33.7350 137.2970 258° West 367 422 38,000  Level FlightAware ADS-B
Sat 03:11:17 AM 33.7180 137.2070 257° West 367 422 38,000  Level FlightAware ADS-B
Sat 03:11:57 AM 33.7030 137.1270 257° West 366 421 38,000  Level FlightAware ADS-B
Sat 03:12:37 AM 33.6890 137.0490 258° West 364 419 38,000  Level FlightAware ADS-B
Sat 03:13:22 AM 33.6720 136.9600 257° West 363 418 38,000  Level FlightAware ADS-B
Sat 03:14:02 AM 33.6570 136.8800 257° West 364 419 38,000  Level FlightAware ADS-B
Sat 03:14:42 AM 33.6420 136.8020 257° West 363 418 38,000  Level FlightAware ADS-B
Sat 03:15:27 AM 33.6260 136.7140 258° West 362 417 38,000  Level FlightAware ADS-B
Sat 03:16:12 AM 33.6090 136.6270 257° West 363 418 38,000  Level FlightAware ADS-B
Sat 03:16:52 AM 33.5940 136.5470 257° West 364 419 38,000  Level FlightAware ADS-B
Sat 03:17:32 AM 33.5790 136.4690 257° West 363 418 38,000  Level FlightAware ADS-B
Sat 03:18:12 AM 33.5640 136.3900 257° West 364 419 38,000  Level FlightAware ADS-B
Sat 03:18:57 AM 33.5470 136.3020 257° West 365 420 38,000  Level FlightAware ADS-B
Sat 03:19:37 AM 33.5320 136.2230 257° West 365 420 38,000  Level FlightAware ADS-B
Sat 03:20:17 AM 33.5160 136.1440 256° West 366 421 38,000  Level FlightAware ADS-B
Sat 03:21:02 AM 33.4990 136.0570 257° West 367 422 38,000  Level FlightAware ADS-B
Sat 03:21:42 AM 33.4840 135.9760 258° West 367 422 38,000  Level FlightAware ADS-B
Sat 03:22:27 AM 33.4670 135.8900 257° West 368 423 38,000  Level FlightAware ADS-B
Sat 03:23:07 AM 33.4510 135.8090 257° West 367 422 38,000  Level FlightAware ADS-B
Sat 03:23:52 AM 33.4310 135.7210 255° West 368 423 38,000  Level FlightAware ADS-B
Sat 03:24:32 AM 33.4120 135.6430 254° West 370 426 38,000  Level FlightAware ADS-B
Sat 03:25:12 AM 33.3930 135.5630 254° West 371 427 38,000  Level FlightAware ADS-B
Sat 03:25:57 AM 33.3720 135.4740 254° West 370 426 38,000  Level FlightAware ADS-B
Sat 03:26:37 AM 33.3530 135.3960 254° West 370 426 38,000  Level FlightAware ADS-B
Sat 03:27:17 AM 33.3330 135.3190 253° West 368 423 38,000  Level FlightAware ADS-B
Sat 03:28:02 AM 33.3100 135.2320 252° West 366 421 38,000  Level FlightAware ADS-B
Sat 03:28:42 AM 33.2900 135.1540 253° West 366 421 38,000  Level FlightAware ADS-B
Sat 03:29:27 AM 33.2670 135.0680 252° West 366 421 38,000  Level FlightAware ADS-B
Sat 03:30:07 AM 33.2470 134.9910 253° West 366 421 38,000  Level FlightAware ADS-B
Sat 03:30:47 AM 33.2290 134.9150 254° West 367 422 38,000  Level FlightAware ADS-B
Sat 03:31:37 AM 33.2050 134.8160 254° West 370 426 38,000  Level FlightAware ADS-B
Sat 03:32:17 AM 33.1860 134.7360 254° West 372 428 38,000  Level FlightAware ADS-B
Sat 03:32:57 AM 33.1660 134.6570 253° West 374 430 38,000  Level FlightAware ADS-B
Sat 03:33:42 AM 33.1450 134.5710 254° West 376 433 38,000  Level FlightAware ADS-B
Sat 03:34:22 AM 33.1250 134.4900 254° West 377 434 38,000  Level FlightAware ADS-B
Sat 03:35:07 AM 33.1040 134.4020 254° West 377 434 38,000  Level FlightAware ADS-B
Sat 03:35:47 AM 33.0830 134.3200 253° West 378 435 38,000  Level FlightAware ADS-B
Sat 03:36:27 AM 33.0630 134.2390 254° West 378 435 38,000  Level FlightAware ADS-B
Sat 03:37:12 AM 33.0420 134.1510 254° West 376 433 38,000  Level FlightAware ADS-B
Sat 03:37:52 AM 33.0230 134.0710 254° West 376 433 38,000  Level FlightAware ADS-B
Sat 03:38:32 AM 33.0010 133.9920 252° West 378 435 38,000  Level FlightAware ADS-B
Sat 03:39:17 AM 32.9680 133.9070 245° Southwest 377 434 38,000  Level FlightAware ADS-B
Sat 03:39:52 AM 32.9440 133.8420 246° West 375 432 38,000  Level FlightAware ADS-B
Sat 03:40:42 AM 32.9100 133.7450 247° West 376 433 38,000  Level FlightAware ADS-B
Sat 03:41:22 AM 32.8840 133.6700 248° West 374 430 38,000  Level FlightAware ADS-B
Sat 03:42:17 AM 32.8480 133.5690 247° West 369 425 38,000  Level FlightAware ADS-B
Sat 03:43:12 AM 32.8130 133.4770 246° West 365 420 38,000  Level FlightAware ADS-B
Sat 03:43:52 AM 32.7830 133.3950 247° West 364 419 38,000  Level FlightAware ADS-B
Sat 03:44:32 AM 32.7550 133.3190 246° West 362 417 38,000  Level FlightAware ADS-B
Sat 03:45:27 AM 32.7190 133.2210 246° West 364 419 38,000  Level FlightAware ADS-B
Sat 03:46:12 AM 32.6890 133.1430 245° Southwest 366 421 38,000  Level FlightAware ADS-B
Sat 03:46:57 AM 32.6560 133.0520 247° West 366 421 38,000  Level FlightAware ADS-B
Sat 03:47:32 AM 32.6330 132.9930 245° Southwest 367 422 38,000  Level FlightAware ADS-B
Sat 03:48:17 AM 32.6040 132.9140 246° West 368 423 38,000  Level FlightAware ADS-B
Sat 03:49:02 AM 32.5690 132.8230 245° Southwest 369 425 38,000  Level FlightAware ADS-B
Sat 03:49:42 AM 32.5440 132.7560 246° West 371 427 38,000  Level FlightAware ADS-B
Sat 03:50:22 AM 32.5130 132.6730 246° West 372 428 38,000  Level FlightAware ADS-B
Sat 03:51:07 AM 32.4810 132.5890 246° West 373 429 38,000  Level FlightAware ADS-B
Sat 03:51:52 AM 32.4520 132.5110 246° West 371 427 38,000  Level FlightAware ADS-B
Sat 03:52:32 AM 32.4210 132.4320 245° Southwest 370 426 38,000  Level FlightAware ADS-B
Sat 03:53:17 AM 32.3890 132.3490 245° Southwest 369 425 38,000  Level FlightAware ADS-B
Sat 03:53:57 AM 32.3610 132.2750 246° West 369 425 38,000  Level FlightAware ADS-B
Sat 03:54:32 AM 32.3380 132.2140 246° West 370 426 38,000  Level FlightAware ADS-B
Sat 03:55:22 AM 32.3000 132.1170 245° Southwest 372 428 38,000  Level FlightAware ADS-B
Sat 03:56:02 AM 32.2720 132.0430 246° West 372 428 38,000  Level FlightAware ADS-B
Sat 03:56:47 AM 32.2350 131.9630 241° Southwest 378 435 38,000  Level FlightAware ADS-B
Sat 03:57:27 AM 32.1950 131.8940 236° Southwest 378 435 38,000  Level FlightAware ADS-B
Sat 03:58:12 AM 32.1570 131.8220 238° Southwest 378 435 38,000  Level FlightAware ADS-B
Sat 03:58:52 AM 32.1230 131.7590 238° Southwest 378 435 38,000  Level FlightAware ADS-B
Sat 03:59:32 AM 32.0830 131.6830 238° Southwest 379 436 38,000  Level FlightAware ADS-B
Sat 04:00:17 AM 32.0410 131.6030 238° Southwest 380 437 38,000  Level FlightAware ADS-B
Sat 04:00:57 AM 32.0050 131.5380 237° Southwest 380 437 38,000  Level FlightAware ADS-B
Sat 04:01:42 AM 31.9580 131.4550 236° Southwest 375 432 38,000  Level FlightAware ADS-B
Sat 04:02:22 AM 31.9210 131.3860 238° Southwest 380 437 38,000  Level FlightAware ADS-B
Sat 04:03:02 AM 31.8800 131.3130 237° Southwest 380 437 38,000  Level FlightAware ADS-B
Sat 04:03:47 AM 31.8390 131.2390 237° Southwest 380 437 38,000  Level FlightAware ADS-B
Sat 04:04:22 AM 31.8040 131.1750 237° Southwest 380 437 38,000  Level FlightAware ADS-B
Sat 04:05:12 AM 31.7570 131.0920 236° Southwest 380 437 38,000  Level FlightAware ADS-B
Sat 04:05:52 AM 31.7230 131.0300 237° Southwest 379 436 38,000  Level FlightAware ADS-B
Sat 04:06:27 AM 31.6890 130.9700 236° Southwest 381 438 38,000  Level FlightAware ADS-B
Sat 04:07:17 AM 31.6370 130.8760 237° Southwest 380 437 38,000  Level FlightAware ADS-B
Sat 04:07:57 AM 31.6010 130.8130 236° Southwest 381 438 38,000  Level FlightAware ADS-B
Sat 04:08:42 AM 31.5560 130.7330 237° Southwest 380 437 38,000  Level FlightAware ADS-B
Sat 04:09:22 AM 31.5200 130.6680 237° Southwest 380 437 38,000  Level FlightAware ADS-B
Sat 04:10:02 AM 31.4780 130.5940 236° Southwest 381 438 38,000  Level FlightAware ADS-B
Sat 04:10:47 AM 31.4340 130.5160 237° Southwest 382 440 38,000  Level FlightAware ADS-B
Sat 04:11:27 AM 31.3960 130.4500 236° Southwest 382 440 38,000  Level FlightAware ADS-B
Sat 04:12:12 AM 31.3530 130.3730 237° Southwest 383 441 38,000  Level FlightAware ADS-B
Sat 04:12:52 AM 31.3130 130.3030 236° Southwest 381 438 38,000  Level FlightAware ADS-B
Sat 04:13:47 AM 31.2630 130.2150 236° Southwest 379 436 38,000  Level FlightAware ADS-B
Sat 04:14:27 AM 31.2230 130.1450 236° Southwest 379 436 38,000  Level FlightAware ADS-B
Sat 04:15:07 AM 31.1810 130.0720 236° Southwest 379 436 38,000  Level FlightAware ADS-B
Sat 04:15:52 AM 31.1410 130.0030 236° Southwest 379 436 38,000  Level FlightAware ADS-B
Sat 04:16:32 AM 31.1080 129.9450 236° Southwest 379 436 38,000  Level FlightAware ADS-B
Sat 04:17:12 AM 31.0740 129.8880 235° Southwest 379 436 38,000  Level FlightAware ADS-B
Sat 04:18:02 AM 31.0330 129.8160 236° Southwest 379 436 38,000  Level FlightAware ADS-B
Sat 04:18:42 AM 30.9990 129.7580 236° Southwest 379 436 38,000  Level FlightAware ADS-B
Sat 04:19:22 AM 30.9660 129.7000 236° Southwest 379 436 38,000  Level FlightAware ADS-B
Sat 04:20:02 AM 30.9330 129.6430 236° Southwest 379 436 38,000  Level FlightAware ADS-B
Sat 04:20:42 AM 30.8990 129.5850 236° Southwest 379 436 38,000  Level FlightAware ADS-B
Sat 04:21:22 AM 30.8660 129.5270 236° Southwest 379 436 38,000  Level FlightAware ADS-B
Sat 04:22:12 AM 30.8240 129.4550 236° Southwest 379 436 38,000  Level FlightAware ADS-B
Sat 04:22:52 AM 30.7910 129.3980 236° Southwest 379 436 38,000  Level FlightAware ADS-B
Sat 04:23:32 AM 30.7580 129.3400 237° Southwest 379 436 38,000  Level FlightAware ADS-B
Sat 04:24:12 AM 30.7240 129.2830 235° Southwest 379 436 38,000  Level FlightAware ADS-B
Sat 04:25:02 AM 30.6830 129.2110 237° Southwest 379 436 38,000  Level FlightAware ADS-B
Sat 04:27:00 AM 30.5540 128.9836 237° Southwest  Level FlightAware Approximate
Sat 04:28:00 AM 30.4882 128.8681 237° Southwest  Level FlightAware Approximate
Sat 04:29:00 AM 30.4224 128.7529 236° Southwest  Level FlightAware Approximate
Sat 04:30:00 AM 30.3564 128.6378 236° Southwest  Level FlightAware Approximate
Sat 04:31:00 AM 30.2904 128.5228 236° Southwest  Level FlightAware Approximate
Sat 04:32:00 AM 30.2242 128.4080 236° Southwest  Level FlightAware Approximate
Sat 04:33:00 AM 30.1580 128.2934 236° Southwest  Level FlightAware Approximate
Sat 04:34:00 AM 30.0916 128.1789 236° Southwest  Level FlightAware Approximate
Sat 04:35:00 AM 30.0252 128.0646 236° Southwest  Level FlightAware Approximate
Sat 04:36:00 AM 29.9475 127.9565 232° Southwest  Level FlightAware Approximate
Sat 04:37:00 AM 29.8735 127.8487 232° Southwest  Level FlightAware Approximate
Sat 04:38:00 AM 29.7995 127.7410 232° Southwest  Level FlightAware Approximate
Sat 04:39:00 AM 29.7253 127.6335 232° Southwest  Level FlightAware Approximate
Sat 04:40:00 AM 29.6511 127.5261 232° Southwest  Level FlightAware Approximate
Sat 04:41:00 AM 29.5768 127.4189 231° Southwest  Level FlightAware Approximate
Sat 04:42:00 AM 29.5024 127.3118 231° Southwest  Level FlightAware Approximate
Sat 04:43:00 AM 29.4280 127.2049 231° Southwest  Level FlightAware Approximate
Sat 04:44:00 AM 29.3534 127.0982 231° Southwest  Level FlightAware Approximate
Sat 04:45:00 AM 29.2788 126.9916 231° Southwest  Level FlightAware Approximate
Sat 04:46:00 AM 29.2040 126.8852 231° Southwest  Level FlightAware Approximate
Sat 04:47:00 AM 29.1292 126.7789 231° Southwest  Level FlightAware Approximate
Sat 04:48:00 AM 29.0543 126.6728 231° Southwest  Level FlightAware Approximate
Sat 04:49:00 AM 28.9782 126.5679 230° Southwest  Level FlightAware Approximate
Sat 04:50:00 AM 28.9020 126.4632 230° Southwest  Level FlightAware Approximate
Sat 04:51:00 AM 28.8256 126.3586 230° Southwest  Level FlightAware Approximate
Sat 04:52:00 AM 28.7492 126.2542 230° Southwest  Level FlightAware Approximate
Sat 04:53:00 AM 28.6727 126.1500 230° Southwest  Level FlightAware Approximate
Sat 04:54:00 AM 28.5961 126.0459 230° Southwest  Level FlightAware Approximate
Sat 04:55:00 AM 28.5199 125.9417 231° Southwest  Level FlightAware Approximate
Sat 04:56:00 AM 28.4441 125.8370 231° Southwest  Level FlightAware Approximate
Sat 04:57:00 AM 28.3682 125.7324 230° Southwest  Level FlightAware Approximate
Sat 04:58:00 AM 28.2923 125.6281 230° Southwest  Level FlightAware Approximate
Sat 04:59:00 AM 28.2163 125.5238 230° Southwest  Level FlightAware Approximate
Sat 05:00:00 AM 28.1402 125.4197 230° Southwest  Level FlightAware Approximate
Sat 05:01:00 AM 28.0640 125.3158 230° Southwest  Level FlightAware Approximate
Sat 05:02:00 AM 27.9877 125.2120 230° Southwest  Level FlightAware Approximate
Sat 05:03:00 AM 27.9114 125.1084 230° Southwest  Level FlightAware Approximate
Sat 05:04:00 AM 27.8350 125.0049 230° Southwest  Level FlightAware Approximate
Sat 05:05:00 AM 27.7585 124.9016 230° Southwest  Level FlightAware Approximate
Sat 05:06:00 AM 27.6819 124.7984 230° Southwest  Level FlightAware Approximate
Sat 05:07:00 AM 27.6052 124.6953 230° Southwest  Level FlightAware Approximate
Sat 05:08:00 AM 27.5285 124.5924 230° Southwest  Level FlightAware Approximate
Sat 05:09:00 AM 27.4517 124.4896 230° Southwest  Level FlightAware Approximate
Sat 05:10:00 AM 27.3749 124.3870 230° Southwest  Level FlightAware Approximate
Sat 05:11:00 AM 27.2979 124.2845 230° Southwest  Level FlightAware Approximate
Sat 05:12:00 AM 27.2209 124.1822 230° Southwest  Level FlightAware Approximate
Sat 05:13:00 AM 27.1438 124.0800 230° Southwest  Level FlightAware Approximate
Sat 05:14:00 AM 27.0763 123.9740 230° Southwest  Level FlightAware Approximate
Sat 05:15:00 AM 26.9991 123.8720 230° Southwest  Level FlightAware Approximate
Sat 05:16:00 AM 26.9218 123.7701 230° Southwest  Level FlightAware Approximate
Sat 05:17:00 AM 26.8445 123.6684 230° Southwest  Level FlightAware Approximate
Sat 05:18:00 AM 26.7671 123.5668 230° Southwest  Level FlightAware Approximate
Sat 05:19:00 AM 26.6896 123.4654 229° Southwest  Level FlightAware Approximate
Sat 05:20:00 AM 26.6121 123.3641 229° Southwest  Level FlightAware Approximate
Sat 05:21:00 AM 26.5345 123.2630 229° Southwest  Level FlightAware Approximate
Sat 05:22:00 AM 26.4568 123.1620 229° Southwest  Level FlightAware Approximate
Sat 05:23:00 AM 26.3790 123.0611 229° Southwest  Level FlightAware Approximate
Sat 05:24:00 AM 26.3012 122.9603 229° Southwest  Level FlightAware Approximate
Sat 05:24:02 AM 26.5650 123.3040 229° Southwest 387 445 38,000  Level FlightAware ADS-B
Sat 05:24:47 AM 26.5110 123.2340 229° Southwest 387 445 38,000  Level FlightAware ADS-B
Sat 05:25:27 AM 26.4660 123.1740 230° Southwest 388 447 38,000  Level FlightAware ADS-B
Sat 05:26:07 AM 26.4170 123.1120 229° Southwest 387 445 38,000  Level FlightAware ADS-B
Sat 05:26:52 AM 26.3700 123.0490 230° Southwest 388 447 38,000  Level FlightAware ADS-B
Sat 05:27:32 AM 26.3210 122.9850 230° Southwest 388 447 38,000  Level FlightAware ADS-B
Sat 05:28:17 AM 26.2680 122.9150 230° Southwest 387 445 38,000  Level FlightAware ADS-B
Sat 05:28:57 AM 26.2210 122.8530 230° Southwest 388 447 38,000  Level FlightAware ADS-B
Sat 05:29:37 AM 26.1770 122.7950 230° Southwest 388 447 38,000  Level FlightAware ADS-B
Sat 05:30:22 AM 26.1240 122.7260 229° Southwest 388 447 38,000  Level FlightAware ADS-B
Sat 05:31:02 AM 26.0770 122.6630 230° Southwest 388 447 38,000  Level FlightAware ADS-B
Sat 05:31:42 AM 26.0310 122.6030 230° Southwest 388 447 38,000  Level FlightAware ADS-B
Sat 05:32:27 AM 25.9780 122.5330 230° Southwest 388 447 38,000  Level FlightAware ADS-B
Sat 05:33:07 AM 25.9340 122.4760 229° Southwest 389 448 38,000  Level FlightAware ADS-B
Sat 05:33:52 AM 25.8780 122.4060 228° Southwest 389 448 38,000  Level FlightAware ADS-B
Sat 05:34:32 AM 25.8290 122.3450 228° Southwest 388 447 38,000  Level FlightAware ADS-B
Sat 05:35:12 AM 25.7820 122.2860 229° Southwest 386 444 38,000  Level FlightAware ADS-B
Sat 05:35:57 AM 25.7290 122.2190 229° Southwest 386 444 38,000  Level FlightAware ADS-B
Sat 05:36:37 AM 25.6800 122.1590 228° Southwest 386 444 38,000  Level FlightAware ADS-B
Sat 05:37:22 AM 25.6280 122.0940 228° Southwest 386 444 38,000  Level FlightAware ADS-B
Sat 05:38:02 AM 25.5820 122.0350 229° Southwest 386 444 38,000  Level FlightAware ADS-B
Sat 05:38:47 AM 25.5290 121.9670 229° Southwest 385 443 38,000  Level FlightAware ADS-B
Sat 05:39:32 AM 25.4770 121.9020 228° Southwest 386 444 38,000  Level FlightAware ADS-B
Sat 05:40:07 AM 25.4350 121.8480 229° Southwest 387 445 38,000  Level FlightAware ADS-B
Sat 05:40:47 AM 25.3870 121.7870 229° Southwest 386 444 38,000  Level FlightAware ADS-B
Sat 05:41:32 AM 25.3350 121.7210 229° Southwest 388 447 38,000  Level FlightAware ADS-B
Sat 05:42:12 AM 25.2880 121.6620 229° Southwest 389 448 38,000  Level FlightAware ADS-B
Sat 05:42:52 AM 25.2410 121.6020 229° Southwest 390 449 38,000  Level FlightAware ADS-B
Sat 05:43:32 AM 25.1920 121.5410 228° Southwest 391 450 38,000  Level FlightAware ADS-B
Sat 05:44:17 AM 25.1360 121.4720 228° Southwest 394 453 38,000  Level FlightAware ADS-B
Sat 05:44:57 AM 25.0870 121.4130 227° Southwest 395 455 38,000  Level FlightAware ADS-B
Sat 05:45:42 AM 25.0340 121.3490 228° Southwest 396 456 38,000  Level FlightAware ADS-B
Sat 05:46:22 AM 24.9850 121.2900 228° Southwest 396 456 38,000  Level FlightAware ADS-B
Sat 05:46:57 AM 24.9460 121.2440 227° Southwest 396 456 38,000  Level FlightAware ADS-B
Sat 05:47:47 AM 24.8930 121.1810 227° Southwest 396 456 38,000  Level FlightAware ADS-B
Sat 05:48:27 AM 24.8500 121.1310 227° Southwest 396 456 38,000  Level FlightAware ADS-B
Sat 05:49:07 AM 24.8080 121.0800 228° Southwest 396 456 38,000  Level FlightAware ADS-B
Sat 05:49:47 AM 24.7650 121.0300 227° Southwest 396 456 38,000  Level FlightAware ADS-B
Sat 05:50:32 AM 24.6830 120.9260 229° Southwest 399 459 38,000  Level FlightAware ADS-B
Sat 05:51:17 AM 24.6260 120.8570 228° Southwest 400 460 38,000  Level FlightAware ADS-B
Sat 05:51:57 AM 24.5750 120.7950 228° Southwest 401 461 38,000  Level FlightAware ADS-B
Sat 05:52:42 AM 24.5210 120.7310 227° Southwest 402 463 38,000  Level FlightAware ADS-B
Sat 05:53:22 AM 24.4690 120.6700 227° Southwest 402 463 38,000  Level FlightAware ADS-B
Sat 05:53:57 AM 24.4240 120.6150 228° Southwest 402 463 38,000  Level FlightAware ADS-B
Sat 05:54:37 AM 24.3720 120.5530 227° Southwest 403 464 38,000  Level FlightAware ADS-B
Sat 05:55:42 AM 24.2940 120.4600 227° Southwest 403 464 38,000  Level FlightAware ADS-B
Sat 05:56:22 AM 24.2400 120.3970 227° Southwest 403 464 38,000  Level FlightAware ADS-B
Sat 05:56:57 AM 24.1940 120.3420 227° Southwest 404 465 38,000  Level FlightAware ADS-B
Sat 05:57:47 AM 24.1360 120.2730 227° Southwest 406 467 38,000  Level FlightAware ADS-B
Sat 05:58:32 AM 24.0750 120.2010 227° Southwest 406 467 38,000  Level FlightAware ADS-B
Sat 05:59:12 AM 24.0250 120.1420 227° Southwest 406 467 38,000  Level FlightAware ADS-B
Sat 05:59:52 AM 23.9770 120.0850 227° Southwest 407 468 38,000  Level FlightAware ADS-B
Sat 06:00:37 AM 23.9160 120.0130 227° Southwest 406 467 38,000  Level FlightAware ADS-B
Sat 06:01:12 AM 23.8700 119.9590 227° Southwest 406 467 38,000  Level FlightAware ADS-B
Sat 06:01:52 AM 23.8180 119.8980 227° Southwest 406 467 38,000  Level FlightAware ADS-B
Sat 06:02:42 AM 23.7530 119.8220 227° Southwest 407 468 38,000  Level FlightAware ADS-B
Sat 06:03:22 AM 23.7040 119.7650 227° Southwest 408 470 38,000  Level FlightAware ADS-B
Sat 06:04:07 AM 23.6450 119.6960 227° Southwest 408 470 38,000  Level FlightAware ADS-B
Sat 06:04:47 AM 23.5960 119.6350 229° Southwest 406 467 38,000  Level FlightAware ADS-B
Sat 06:05:32 AM 23.5470 119.5550 236° Southwest 406 467 38,000  Level FlightAware ADS-B
Sat 06:06:12 AM 23.5110 119.4920 238° Southwest 405 466 38,000  Level FlightAware ADS-B
Sat 06:07:07 AM 23.4540 119.3930 238° Southwest 407 468 38,000  Level FlightAware ADS-B
Sat 06:07:47 AM 23.4120 119.3220 237° Southwest 406 467 38,000  Level FlightAware ADS-B
Sat 06:08:32 AM 23.3690 119.2470 238° Southwest 406 467 38,000  Level FlightAware ADS-B
Sat 06:09:12 AM 23.3300 119.1810 237° Southwest 406 467 38,000  Level FlightAware ADS-B
Sat 06:09:52 AM 23.2870 119.1070 238° Southwest 405 466 38,000  Level FlightAware ADS-B
Sat 06:10:37 AM 23.2450 119.0350 238° Southwest 406 467 38,000  Level FlightAware ADS-B
Sat 06:11:17 AM 23.2050 118.9650 238° Southwest 405 466 38,000  Level FlightAware ADS-B
Sat 06:11:52 AM 23.1680 118.9040 237° Southwest 405 466 38,000  Level FlightAware ADS-B
Sat 06:12:42 AM 23.1190 118.8190 238° Southwest 406 467 38,000  Level FlightAware ADS-B
Sat 06:13:22 AM 23.0750 118.7460 237° Southwest 408 470 38,000  Level FlightAware ADS-B
Sat 06:14:22 AM 23.0220 118.6560 237° Southwest 409 471 38,000  Level FlightAware ADS-B
Sat 06:15:02 AM 22.9870 118.5980 237° Southwest 409 471 38,000  Level FlightAware ADS-B
Sat 06:15:47 AM 22.9320 118.5030 238° Southwest 409 471 38,000  Level FlightAware ADS-B
Sat 06:16:27 AM 22.8900 118.4320 237° Southwest 408 470 38,000  Level FlightAware ADS-B
Sat 06:17:12 AM 22.8440 118.3550 237° Southwest 408 470 38,000  Level FlightAware ADS-B
Sat 06:17:52 AM 22.8010 118.2830 237° Southwest 409 471 38,000  Level FlightAware ADS-B
Sat 06:18:32 AM 22.7580 118.2110 237° Southwest 410 472 38,000  Level FlightAware ADS-B
Sat 06:19:17 AM 22.7150 118.1390 237° Southwest 410 472 38,000  Level FlightAware ADS-B
Sat 06:19:57 AM 22.6720 118.0670 237° Southwest 411 473 38,000  Level FlightAware ADS-B
Sat 06:20:37 AM 22.6300 117.9970 237° Southwest 411 473 38,000  Level FlightAware ADS-B
Sat 06:21:22 AM 22.5870 117.9260 237° Southwest 411 473 38,000  Level FlightAware ADS-B
Sat 06:22:07 AM 22.5380 117.8430 237° Southwest 411 473 38,000  Level FlightAware ADS-B
Sat 06:22:37 AM 22.5050 117.7870 237° Southwest 410 472 38,000  Level FlightAware ADS-B
Sat 06:23:27 AM 22.4560 117.7050 237° Southwest 411 473 38,000  Level FlightAware ADS-B
Sat 06:24:12 AM 22.4120 117.6310 237° Southwest 412 474 38,000  Level FlightAware ADS-B
Sat 06:24:42 AM 22.3780 117.5740 237° Southwest 412 474 38,000  Level FlightAware ADS-B
Sat 06:25:32 AM 22.3310 117.4970 237° Southwest 412 474 38,000  Level FlightAware ADS-B
Sat 06:26:12 AM 22.2960 117.4380 237° Southwest 412 474 38,000  Level FlightAware ADS-B
Sat 06:26:52 AM 22.2610 117.3790 237° Southwest 412 474 38,000  Level FlightAware ADS-B
Sat 06:27:42 AM 22.2170 117.3060 237° Southwest 412 474 38,000  Level FlightAware ADS-B
Sat 06:28:22 AM 22.1810 117.2470 237° Southwest 412 474 38,000  Level FlightAware ADS-B
Sat 06:29:02 AM 22.1460 117.1880 237° Southwest 412 474 38,000 -141 Level FlightAware ADS-B
Sat 06:29:47 AM 22.3240 116.9640 311° West 409 471 37,800 -442 Descending FlightAware ADS-B
Sat 06:30:37 AM 22.3210 116.8690 268° West 410 472 37,300 -333 Descending FlightAware ADS-B
Sat 06:31:17 AM 22.3190 116.8000 268° West 410 472 37,300 -1,200 Level FlightAware ADS-B
Sat 06:32:02 AM 22.3170 116.6990 269° West 411 473 35,600 -1,200 Descending FlightAware ADS-B
Sat 06:32:42 AM 22.3150 116.6290 268° West 411 473 35,600  Level FlightAware ADS-B
Sat 06:33:32 AM 22.3120 116.5420 268° West 411 473 35,600  Level FlightAware ADS-B
Sat 06:34:12 AM 22.3100 116.4720 268° West 411 473 35,600  Level FlightAware ADS-B
Sat 06:34:52 AM 22.3080 116.4020 268° West 411 473 35,600  Level FlightAware ADS-B
Sat 06:35:32 AM 22.3060 116.3320 268° West 411 473 35,600  Level FlightAware ADS-B
Sat 06:36:12 AM 22.3030 116.2630 267° West 411 473 35,600  Level FlightAware ADS-B
Sat 06:36:52 AM 22.3010 116.1930 268° West 411 473 35,600  Level FlightAware ADS-B
Sat 06:37:32 AM 22.2990 116.1230 268° West 411 473 35,600  Level FlightAware ADS-B
Sat 06:38:12 AM 22.2970 116.0530 268° West 411 473 35,600  Level FlightAware ADS-B
Sat 06:38:52 AM 22.2940 115.9830 267° West 411 473 35,600  Level FlightAware ADS-B
Sat 06:39:42 AM 22.2910 115.8960 268° West 411 473 35,600  Level FlightAware ADS-B
Sat 06:40:22 AM 22.2890 115.8260 268° West 411 473 35,600  Level FlightAware ADS-B
Sat 06:41:02 AM 22.2870 115.7560 268° West 411 473 35,600 -1,767 Level FlightAware ADS-B
Sat 06:43:00 AM 22.3167 115.5005 270° West  Level FlightAware Approximate
Sat 06:44:00 AM 22.3168 115.3717 270° West  Level FlightAware Approximate
Sat 06:45:00 AM 22.3168 115.2429 270° West  Level FlightAware Approximate
Sat 06:46:00 AM 22.3167 115.1140 270° West  Level FlightAware Approximate
Sat 06:47:00 AM 22.3167 114.9852 270° West  Level FlightAware Approximate
Sat 06:48:00 AM 22.3167 114.8563 270° West  Level FlightAware Approximate
Sat 06:49:00 AM 22.3167 114.7274 270° West  Level FlightAware Approximate
Sat 06:50:00 AM 22.3167 114.5986 270° West  Level FlightAware Approximate
Sat 06:51:00 AM 22.3167 114.4697 270° West  Level FlightAware Approximate
Sat 06:52:00 AM 22.3167 114.3409 270° West  Level FlightAware Approximate
Sat 06:53:00 AM 22.3167 114.2120 270° West  Level FlightAware Approximate
Sat 06:54:00 AM 22.3167 114.2000 270° West  Level FlightAware Approximate
Sat 06:54:07 AM 22.2510 114.3830 270° West 319 367 11,300  Level FlightAware ADS-B
Sat 06:54:47 AM 22.2480 114.3280 267° West 319 367 11,300  Level FlightAware ADS-B
Sat 06:55:27 AM 22.2460 114.2740 268° West 319 367 11,300 -911 Level FlightAware ADS-B
Sat 06:58:00 AM 22.3167 114.2000 270° West  Level FlightAware Approximate
Sat 06:59:00 AM 22.3132 114.0712 270° West  Level Estimated
Sat 06:59:17 AM 22.1160 113.9440 270° West 244 281 7,200  Level FlightAware ADS-B
Sat 06:59:42 AM 22.1060 113.9190 247° West 244 281 7,200 -762 Level FlightAware ADS-B
Sat 07:02:00 AM 22.3089 113.9146 359° North  Level Estimated
Sat 07:03:00 AM 22.3089 113.9146 110° East  Level Estimated
Sat 07:04:00 AM 22.3089 113.9146 110° East  Level Estimated
Sat 07:05:00 AM 22.3089 113.9146 110° East  Level Estimated
Sat 07:06:00 AM 22.3089 113.9146 110° East  Level Estimated
Sat 07:07:00 AM 22.3089 113.9146 110° East  Level Estimated
Sat 07:07:57 AM 22.3020 113.8710 110° East 144 166 600  Level FlightAware ADS-B
Sat 07:08:00 AM 22.3089 113.9146 110° East  Level Estimated
Sat 07:08:37 AM 22.3110 113.8970 69° East 143 165 200  Level FlightAware ADS-B

Login

Don't have an account? Register now (free) for customized features, flight alerts, and more!